Ship Status Report: callsign 000000

sailwx.info

Track history (hours):
 
Tides and Currents Weather Stations Pressure Air Temp Water Temp Dewpoint Dewpoint Depression Visibility Wind Speed Wind Dir Waves Ship Positions

Callsign 000000 (name unknown)

Last reported at 2016-Feb-13 18:32 UTC. Time now 2016-Feb-13 19:09 UTC.
Position N 31°30' E 121°23'.

Type: Fishing. MMSI: 200007452.

Date/timePositionNaut miles runAvg speedWind from/ knotsBaromVisibWave heightAir tempDewpointWater temp
2016-Feb-13 18:32N 31°30' E 121°23'65981862.0
2016-Feb-13 18:32N 23°06' E 113°25'3207992.8
2016-Feb-13 18:29N 24°53' E 118°55'4313.2
2016-Feb-13 18:29N 24°49' E 118°57'822.4
2016-Feb-13 18:09N 24°49' E 119°06'419708.1
2016-Feb-13 17:33N 31°30' E 121°23'41862734.9
2016-Feb-13 17:33N 24°53' E 118°56'1274.9
2016-Feb-13 17:32N 24°53' E 118°55'32016680.6
2016-Feb-13 17:31N 23°06' E 113°25'6181130119.7
2016-Feb-13 17:28N 49°18' W 123°08'583460876.8
2016-Feb-13 17:23N 24°49' E 118°57'7282.7
2016-Feb-13 17:21N 24°49' E 119°06'58317332.3
2016-Feb-13 16:33N 49°18' W 123°03'58891177763.7
2016-Feb-13 16:33N 22°37' E 120°16'53731161.1
2016-Feb-13 16:32N 31°30' E 121°23'65931236.7
2016-Feb-13 16:31N 23°06' E 113°25'3209083.6
2016-Feb-13 16:29N 24°49' E 118°57'3102.9
2016-Feb-13 16:27N 24°53' E 118°57'111.6
2016-Feb-13 16:20N 24°53' E 118°55'151192.9
2016-Feb-13 15:33N 22°37' E 120°07'53855328.6
2016-Feb-13 15:33N 31°30' E 121°23'418167293.2
2016-Feb-13 15:33N 24°53' E 118°57'111.5
2016-Feb-13 15:26N 24°53' E 118°55'3208922.2
2016-Feb-13 15:24N 23°06' E 113°25'32011892.9
2016-Feb-13 15:23N 24°49' E 118°57'421510.4
2016-Feb-13 14:33N 31°30' E 121°23'41860224.7
2016-Feb-13 14:33N 24°53' E 118°57'1216.0
2016-Feb-13 14:32N 24°53' E 118°55'463.6
2016-Feb-13 14:29N 24°49' E 118°57'3203923.9
2016-Feb-13 14:24N 23°06' E 113°25'659776.8
2016-Feb-13 13:33N 31°30' E 121°23'418188212.2
2016-Feb-13 13:33N 24°53' E 118°56'91338.4
2016-Feb-13 13:32N 24°49' E 119°06'10840.1
2016-Feb-13 13:32N 24°53' E 118°55'482.6
2016-Feb-13 13:29N 24°49' E 118°57'3213530.1
2016-Feb-13 13:23N 23°06' E 113°25'660785.5
2016-Feb-13 12:33N 31°30' E 121°23'419503030.2
2016-Feb-13 12:33N 24°49' E 119°06'94566.7
2016-Feb-13 12:33N 24°53' E 118°57'0 2.1
2016-Feb-13 12:30N 24°52' E 118°57'32114447.5
2016-Feb-13 12:29N 23°06' E 113°25'3213180.0
2016-Feb-13 12:23N 24°49' E 118°57'421506.9
2016-Feb-13 11:33N 31°30' E 121°23'419251532.4
2016-Feb-13 11:33N 24°49' E 119°06'7111.5
2016-Feb-13 11:29N 24°49' E 118°57'461.5
2016-Feb-13 11:25N 24°53' E 118°55'105708.2
2016-Feb-13 11:25N 24°47' E 119°04'3267621.5
2016-Feb-13 11:22N 23°06' E 113°25'660807.1
2016-Feb-13 10:33N 31°30' E 121°23'419137177.1
2016-Feb-13 10:33N 24°51' E 118°57'213.7
2016-Feb-13 10:23N 24°49' E 118°57'32115390.9
2016-Feb-13 10:22N 23°06' E 113°25'629.7
2016-Feb-13 10:09N 23°03' E 113°19'327552.8
2016-Feb-13 09:33N 24°49' E 118°57'324129431.7
2016-Feb-13 09:33N 23°02' E 113°23'415424.3
2016-Feb-13 09:33N 23°06' E 113°25'66064174.0
2016-Feb-13 09:33N 31°30' E 121°23'41915886.9
2016-Feb-13 09:31N 24°51' E 118°57'128.0
2016-Feb-13 09:28N 24°53' E 118°57'8167.1
2016-Feb-13 09:25N 24°50' E 119°05'8637.8
2016-Feb-13 09:25N 24°53' E 118°57'30712269.0
2016-Feb-13 09:23N 22°19' E 114°07'674816.4
2016-Feb-13 08:34N 31°30' E 121°23'659182376.0
2016-Feb-13 08:33N 23°04' E 113°30'317114077.3
2016-Feb-13 08:33N 24°53' E 118°55'32060625.6
2016-Feb-13 08:33N 23°06' E 113°25'32519802.0
2016-Feb-13 08:32N 24°52' E 119°01'3261.7
2016-Feb-13 08:31N 24°51' E 118°57'7444.2
2016-Feb-13 08:30N 24°45' E 118°55'937.3
2016-Feb-13 08:16N 24°47' E 119°04'811.8
2016-Feb-13 07:33N 24°45' E 118°55'81779.0
2016-Feb-13 07:33N 24°47' E 119°04'421758450.1
2016-Feb-13 07:33N 31°30' E 121°23'658395048.0
2016-Feb-13 07:33N 23°04' E 113°30'318104171.7
2016-Feb-13 07:33N 24°51' E 118°58'26330.2
2016-Feb-13 07:33N 24°53' E 118°57'831.5
2016-Feb-13 07:17N 24°49' E 119°05'3277590.9
2016-Feb-13 07:14N 23°06' E 113°25'660971.5
2016-Feb-13 06:33N 31°30' E 121°23'658124752.8
2016-Feb-13 06:33N 23°04' E 113°30'31820800.2
2016-Feb-13 06:32N 24°53' E 118°57'3211542.9
2016-Feb-13 06:20N 23°06' E 113°25'32519528.4
2016-Feb-13 06:19N 24°48' E 119°03'372.7
2016-Feb-13 06:16N 24°50' E 119°01'419587.3
2016-Feb-13 05:33N 31°30' E 121°23'6582370394.3
2016-Feb-13 05:33N 23°04' E 113°30'32114634.4
2016-Feb-13 05:32N 24°50' E 119°01'58824.0
2016-Feb-13 05:32N 24°53' E 118°56'32124072.2
2016-Feb-13 05:31N 23°06' E 113°25'6584842.1
2016-Feb-13 05:23N 31°20' E 121°34'656792.3
2016-Feb-13 04:33N 23°04' E 113°30'32289154.7
2016-Feb-13 04:33N 24°47' E 119°03'42026.4
2016-Feb-13 04:33N 24°50' E 119°00'42079596.3
2016-Feb-13 04:33N 31°30' E 121°23'418100388.1
2016-Feb-13 04:33N 24°53' E 118°56'4118812.0
2016-Feb-13 04:30N 31°20' E 121°34'6587945.6
2016-Feb-13 04:25N 23°06' E 113°25'32898514.9
2016-Feb-13 04:25N 24°49' E 119°06'139.4
2016-Feb-13 04:23N 24°50' E 119°06'6173.2
2016-Feb-13 03:33N 24°20' E 118°07'265106095.8
2016-Feb-13 03:33N 23°04' E 113°30'658790093.7
2016-Feb-13 03:33N 31°30' E 121°23'41935910.0
2016-Feb-13 03:32N 24°49' E 119°07'141256.8
2016-Feb-13 03:32N 24°49' E 118°52'31613695.6
2016-Feb-13 03:30N 23°06' E 113°25'32018880.3
2016-Feb-13 03:29N 24°53' E 118°55'317338.6
2016-Feb-13 02:33N 23°04' E 113°29'659237091.1
2016-Feb-13 02:33N 31°30' E 121°23'41943046.6
2016-Feb-13 02:32N 24°53' E 118°55'6668.7
2016-Feb-13 02:32N 24°49' E 118°50'14445.8
2016-Feb-13 02:30N 24°49' E 119°05'3111131.3
2016-Feb-13 02:13N 22°19' E 114°08'6741013.4
2016-Feb-13 01:33N 31°30' E 121°23'42128094.6
2016-Feb-13 01:33N 24°47' E 119°04'323129094.7
2016-Feb-13 01:32N 23°04' E 113°29'3176957.4
2016-Feb-13 01:30N 24°52' E 118°55'75104.7
2016-Feb-13 01:30N 24°45' E 118°56'71314.2
2016-Feb-13 01:29N 24°53' E 118°55'3203138.2
2016-Feb-13 01:23N 23°06' E 113°25'4 4.7
2016-Feb-13 00:33N 23°04' E 113°29'6582369779.6
2016-Feb-13 00:33N 31°30' E 121°23'41835036.3
2016-Feb-13 00:33N 24°52' E 118°55'0 8.0
2016-Feb-13 00:31N 24°53' E 118°55'10404.2
2016-Feb-13 00:30N 24°49' E 119°05'247.2
2016-Feb-13 00:27N 24°49' E 119°08'4181.5
2016-Feb-13 00:26N 24°47' E 119°04'2332.6
2016-Feb-13 00:25N 24°49' E 119°06'3282301.7
2016-Feb-13 00:17N 23°06' E 113°25'4 5.4
2016-Feb-12 23:33N 23°04' E 113°29'659139515.8
2016-Feb-12 23:33N 31°34' E 121°18'42415741.4
2016-Feb-12 23:32N 24°47' E 119°04'10310.6
2016-Feb-12 23:30N 24°52' E 118°55'5241.9
2016-Feb-12 23:28N 24°48' E 118°57'32082401.3
2016-Feb-12 23:28N 23°06' E 113°25'3276369.2
2016-Feb-12 23:25N 24°48' E 119°05'10203.1
2016-Feb-12 23:22N 24°53' E 118°55'5837162900.4
2016-Feb-12 23:20N 49°18' W 123°02'58357524.2
2016-Feb-12 22:33N 24°47' E 119°04'42796030.5
2016-Feb-12 22:33N 31°37' E 121°16'660339422.7
2016-Feb-12 22:33N 23°04' E 113°29'6184337292.5
2016-Feb-12 22:32N 49°18' W 123°02'5837412042.2
2016-Feb-12 22:31N 24°53' E 118°55'010.4
2016-Feb-12 22:30N 24°52' E 118°55'10289.5
2016-Feb-12 22:28N 24°49' E 119°05'110.0
2016-Feb-12 22:23N 24°49' E 119°05'425513.2
2016-Feb-12 21:33N 31°37' E 121°16'660593989.8
2016-Feb-12 21:33N 23°04' E 113°29'41279.6
2016-Feb-12 21:33N 23°06' E 113°25'3279979.4
2016-Feb-12 21:31N 24°49' E 119°05'10363.6
2016-Feb-12 21:30N 24°52' E 118°55'1085.1
2016-Feb-12 21:23N 24°46' E 119°03'10697.5
2016-Feb-12 21:22N 24°53' E 118°55'5837375251.0
2016-Feb-12 21:21N 49°18' W 123°02'583283646.0
2016-Feb-12 21:17N 24°49' E 119°06'424581.4
2016-Feb-12 20:33N 31°37' E 121°16'4231524465.6
2016-Feb-12 20:33N 24°53' E 118°55'317190294.5
2016-Feb-12 20:33N 23°04' E 113°29'4988.7
2016-Feb-12 20:33N 23°06' E 113°25'32712527.3
2016-Feb-12 20:31N 24°49' E 119°05'374.3
2016-Feb-12 20:29N 24°46' E 119°03'10669.3
2016-Feb-12 20:28N 24°53' E 118°55'1175.2
2016-Feb-12 20:20N 24°49' E 119°06'325423.0
2016-Feb-12 19:33N 23°04' E 113°29'6602375993.8
2016-Feb-12 19:33N 31°37' E 121°16'42395280.4
2016-Feb-12 19:33N 24°53' E 118°55'32022582.5
2016-Feb-12 19:32N 23°06' E 113°25'32016444.3
2016-Feb-12 19:31N 24°53' E 118°55'10266.4
2016-Feb-12 19:29N 24°46' E 119°03'423.7
2016-Feb-12 19:20N 24°49' E 119°06'1823.0
2016-Feb-12 18:33N 24°47' E 118°47'1017670.4
2016-Feb-12 18:33N 24°53' E 118°55'317380591.6
2016-Feb-12 18:33N 23°04' E 113°29'660169716.2
2016-Feb-12 18:33N 31°37' E 121°16'42833464.6
2016-Feb-12 18:32N 24°46' E 119°03'32561550.1
2016-Feb-12 18:32N 23°06' E 113°25'3286828.8
2016-Feb-12 18:29N 24°49' E 119°06'11802.7
2016-Feb-12 18:28N 24°53' E 118°55'1040.2
2016-Feb-12 18:13N 24°49' E 119°05'324488.3
2016-Feb-12 17:33N 23°04' E 113°29'660198003.2
2016-Feb-12 17:33N 31°37' E 121°16'432310690.3
2016-Feb-12 17:33N 24°47' E 118°47'101149.3
2016-Feb-12 17:33N 24°53' E 118°55'101074.7
2016-Feb-12 17:32N 24°46' E 119°03'4319.6
2016-Feb-12 17:31N 24°49' E 119°06'328236279.9
2016-Feb-12 17:31N 23°06' E 113°25'32813877.2
2016-Feb-12 17:30N 24°48' E 119°06'1071.1
2016-Feb-12 17:21N 24°53' E 118°55'10312.8
2016-Feb-12 17:19N 24°49' E 119°05'425553.4
2016-Feb-12 16:33N 31°37' E 121°16'432776736.0
2016-Feb-12 16:33N 24°47' E 118°47'108865.2
2016-Feb-12 16:33N 24°53' E 118°55'317380591.6
2016-Feb-12 16:33N 23°04' E 113°29'31743922.1
2016-Feb-12 16:33N 24°53' E 118°55'10950.9
2016-Feb-12 16:32N 24°46' E 119°03'14045923.8
2016-Feb-12 16:32N 22°36' E 119°60'36519308.9
2016-Feb-12 16:31N 23°06' E 113°25'1667.3
2016-Feb-12 16:16N 22°52' E 113°33'668928.8
2016-Feb-12 15:33N 31°37' E 121°16'545653554.1
2016-Feb-12 15:33N 22°36' E 120°06'151271639.1
2016-Feb-12 15:33N 24°53' E 118°55'317570887.4
2016-Feb-12 15:33N 23°04' E 113°29'31742295.3
2016-Feb-12 15:33N 24°53' E 118°55'10978.0
2016-Feb-12 15:32N 24°46' E 119°03'152231.2
2016-Feb-12 15:32N 24°47' E 118°47'31113314.5
2016-Feb-12 15:30N 23°06' E 113°25'4 4.1
2016-Feb-12 14:33N 23°04' E 113°29'37389604.3
2016-Feb-12 14:33N 22°36' E 120°13'154553504.5
2016-Feb-12 14:33N 24°53' E 118°55'425139151.9
2016-Feb-12 14:33N 31°41' E 121°11'42576527.7
2016-Feb-12 14:33N 24°53' E 118°55'10878.1
2016-Feb-12 14:32N 24°46' E 119°03'3258534.8
2016-Feb-12 14:30N 23°06' E 113°25'31131954.4
2016-Feb-12 14:29N 24°47' E 118°47'308331.6
2016-Feb-12 13:33N 23°04' E 113°29'31723787.6
2016-Feb-12 13:33N 24°53' E 118°55'102891.1
2016-Feb-12 13:32N 24°49' E 119°05'16783.6
2016-Feb-12 13:31N 24°47' E 118°48'3129433.2
2016-Feb-12 13:29N 23°06' E 113°25'6607153.5
2016-Feb-12 13:24N 31°46' E 121°02'4291358.4
2016-Feb-12 13:05N 24°49' E 119°06'713.1
2016-Feb-12 12:33N 24°51' E 118°59'61029.8
2016-Feb-12 12:33N 24°46' E 119°03'725746.3
2016-Feb-12 12:33N 24°49' E 118°56'31663260.1
2016-Feb-12 12:33N 23°04' E 113°29'32410331.5
2016-Feb-12 12:31N 24°48' E 119°05'3278922.5
2016-Feb-12 12:29N 23°06' E 113°25'4 4.2
2016-Feb-12 11:33N 23°04' E 113°29'3245113.2
2016-Feb-12 11:30N 24°49' E 119°05'32713836.5
2016-Feb-12 11:28N 23°06' E 113°25'3257549.9
2016-Feb-12 11:26N 24°46' E 119°03'5108.9
2016-Feb-12 11:23N 24°52' E 119°04'357.1
2016-Feb-12 11:19N 24°49' E 119°06'530.9
2016-Feb-12 11:10N 24°53' E 119°04'325526.1
2016-Feb-12 10:33N 23°04' E 113°29'3201151850.0
2016-Feb-12 10:33N 24°50' E 118°60'52744.6
2016-Feb-12 10:33N 24°46' E 119°04'7330.6
2016-Feb-12 10:31N 24°53' E 119°06'526.4
2016-Feb-12 10:21N 24°49' E 119°05'114.5
2016-Feb-12 10:15N 24°49' E 119°06'1 0.8
2016-Feb-12 09:33N 24°49' E 119°06'32583697.3
2016-Feb-12 09:33N 23°04' E 113°29'32212089.5
2016-Feb-12 09:32N 24°46' E 119°04'4134.4
2016-Feb-12 09:30N 24°50' E 119°02'3293.7
2016-Feb-12 09:29N 24°48' E 119°05'3272416.2
2016-Feb-12 09:21N 23°06' E 113°25'3291818.1
2016-Feb-12 09:10N 24°53' E 119°06'1121324.9
2016-Feb-12 09:05N 23°43' E 117°30'225421.2
2016-Feb-12 08:33N 23°04' E 113°29'4554.0
2016-Feb-12 08:33N 23°06' E 113°25'32628608.7
2016-Feb-12 08:32N 24°46' E 119°04'6134.0
2016-Feb-12 08:29N 24°53' E 119°06'4125.6
2016-Feb-12 08:27N 24°49' E 119°05'132.5
2016-Feb-12 08:26N 24°49' E 119°06'3115.2
2016-Feb-12 08:24N 24°47' E 119°04'323378.0
2016-Feb-12 07:33N 23°04' E 113°29'4213.1
2016-Feb-12 07:32N 23°06' E 113°25'32853682.4
2016-Feb-12 07:32N 24°49' E 119°06'387.6
2016-Feb-12 07:30N 24°46' E 119°05'323338.0
2016-Feb-12 06:33N 23°04' E 113°29'3243209.1
2016-Feb-12 06:27N 24°46' E 119°05'7295.3
2016-Feb-12 06:25N 24°53' E 119°08'5661.5
2016-Feb-12 06:25N 24°49' E 119°06'2 9.2
2016-Feb-12 06:14N 24°48' E 119°05'32723541.3
2016-Feb-12 06:14N 23°06' E 113°25'4 5.7
2016-Feb-12 05:33N 23°04' E 113°29'32211159.9
2016-Feb-12 05:32N 24°46' E 119°03'32548783.7
2016-Feb-12 05:31N 23°06' E 113°25'32614137.2
2016-Feb-12 05:30N 24°51' E 119°03'461.0
2016-Feb-12 05:26N 24°47' E 119°03'432.2
2016-Feb-12 05:18N 24°49' E 119°07'535.0
2016-Feb-12 05:09N 24°48' E 119°01'3 4.8
2016-Feb-12 04:33N 24°47' E 119°03'32226374.5
2016-Feb-12 04:32N 23°04' E 113°29'4141.3
2016-Feb-12 04:31N 23°06' E 113°25'32978956.7
2016-Feb-12 04:30N 24°49' E 119°07'11879.5
2016-Feb-12 04:30N 24°52' E 118°56'1120.3
2016-Feb-12 04:29N 24°53' E 118°55'34242.1
2016-Feb-12 04:21N 24°25' E 118°33'381994.9
2016-Feb-12 04:20N 24°49' E 119°06'0 0.2
2016-Feb-12 03:33N 24°49' E 119°06'325234069.4
2016-Feb-12 03:33N 23°04' E 113°29'31781569.6
2016-Feb-12 03:33N 24°53' E 118°55'0 7.3
2016-Feb-12 03:32N 24°53' E 118°55'10966.0
2016-Feb-12 03:32N 24°52' E 119°06'464.4
2016-Feb-12 03:28N 24°49' E 119°05'3274705.1
2016-Feb-12 03:24N 23°06' E 113°25'3251103.3
2016-Feb-12 03:06N 24°47' E 119°03'2112.8
2016-Feb-12 03:05N 24°47' E 119°05'331617.8
2016-Feb-12 02:33N 23°02' E 113°22'32489620.5
2016-Feb-12 02:33N 24°53' E 118°55'3238.3
2016-Feb-12 02:32N 24°50' E 118°57'7414.7
2016-Feb-12 02:31N 24°46' E 119°04'32182664.7
2016-Feb-12 02:31N 22°56' E 113°33'32512727.8
2016-Feb-12 02:29N 24°49' E 119°07'113696.6
2016-Feb-12 02:29N 24°53' E 118°55'13234.6
2016-Feb-12 02:26N 24°52' E 119°09'3322323.9
2016-Feb-12 02:18N 23°06' E 113°25'320431.3
2016-Feb-12 01:33N 24°53' E 118°55'112154.2
2016-Feb-12 01:33N 24°46' E 119°05'155559.4
2016-Feb-12 01:33N 24°47' E 118°48'30811925.4
2016-Feb-12 01:31N 22°56' E 113°34'325292528.4
2016-Feb-12 01:31N 24°49' E 119°07'32910766.7
2016-Feb-12 01:29N 23°06' E 113°25'32890864.3
2016-Feb-12 01:29N 24°48' E 119°06'11255.7
2016-Feb-12 01:26N 24°53' E 118°55'1140.8
2016-Feb-12 01:11N 24°48' E 119°06'1117.0
2016-Feb-12 00:33N 24°53' E 118°55'11564.2
2016-Feb-12 00:32N 24°49' E 119°07'2200.9
2016-Feb-12 00:31N 24°48' E 119°05'371644.5
2016-Feb-12 00:30N 24°25' E 118°33'383541.0
2016-Feb-12 00:29N 24°48' E 119°07'32825157.0
2016-Feb-12 00:29N 23°06' E 113°25'3278346.3
2016-Feb-12 00:26N 24°47' E 119°05'217.7
2016-Feb-12 00:20N 24°47' E 119°03'43429489.3
2016-Feb-12 00:19N 31°49' E 120°55'14122.2
2016-Feb-12 00:12N 32°00' E 120°45'488.5
2016-Feb-12 00:10N 32°00' E 120°49'441720.1
2016-Feb-11 23:33N 24°49' E 119°07'32060.9
2016-Feb-11 23:33N 24°46' E 119°04'104100.2
2016-Feb-11 23:33N 24°53' E 118°55'1034521.3
2016-Feb-11 23:33N 24°49' E 119°05'105716.9
2016-Feb-11 23:33N 24°53' E 118°55'43847812.9
2016-Feb-11 23:32N 32°00' E 120°45'44211708.9
2016-Feb-11 23:30N 24°47' E 119°04'43415312.6
2016-Feb-11 23:28N 31°49' E 120°55'6593169.8
2016-Feb-11 23:16N 23°06' E 113°25'6643328.1
2016-Feb-11 23:04N 32°00' E 120°49'439862.3
2016-Feb-11 22:33N 24°53' E 118°55'430140758.7
2016-Feb-11 22:33N 31°50' E 120°55'430110627.2
2016-Feb-11 22:33N 24°53' E 118°55'91391.3
2016-Feb-11 22:33N 24°47' E 119°03'3366.1
2016-Feb-11 22:32N 24°49' E 119°06'310116.3
2016-Feb-11 22:32N 24°47' E 119°04'31396.2
2016-Feb-11 22:32N 24°49' E 119°05'3274363.6
2016-Feb-11 22:28N 23°06' E 113°25'66434633.9
2016-Feb-11 22:26N 32°00' E 120°49'467.8
2016-Feb-11 22:23N 32°00' E 120°45'438528.4
2016-Feb-11 21:33N 24°53' E 118°55'32071935.8
2016-Feb-11 21:33N 23°06' E 113°25'320143876.9
2016-Feb-11 21:33N 24°53' E 118°55'43038723.2
2016-Feb-11 21:32N 31°50' E 120°55'142177.6
2016-Feb-11 21:32N 31°60' E 120°44'470.0
2016-Feb-11 21:28N 32°00' E 120°49'44114840.9
2016-Feb-11 21:27N 24°49' E 119°05'4408809.9
2016-Feb-11 21:24N 32°01' E 120°43'44019094.0
2016-Feb-11 21:22N 24°49' E 119°04'624.8
2016-Feb-11 21:07N 24°54' E 119°09'1322.8
2016-Feb-11 20:33N 24°53' E 118°55'32054819.4
2016-Feb-11 20:33N 23°06' E 113°25'327589065.5
2016-Feb-11 20:33N 24°49' E 119°05'44126916.2
2016-Feb-11 20:32N 32°00' E 120°49'4269.4
2016-Feb-11 20:31N 32°00' E 120°45'43875141.5
2016-Feb-11 20:31N 24°53' E 118°55'43029219.1
2016-Feb-11 20:30N 31°50' E 120°55'43219180.3
2016-Feb-11 20:28N 24°49' E 119°04'9 9.7
2016-Feb-11 19:33N 24°53' E 118°55'438143463.5
2016-Feb-11 19:33N 32°00' E 120°45'438121418.2
2016-Feb-11 19:33N 24°53' E 118°55'32021318.4
2016-Feb-11 19:32N 23°06' E 113°25'65918970.6
2016-Feb-11 19:30N 31°50' E 120°55'43255517.0
2016-Feb-11 19:30N 24°49' E 119°05'145.3
2016-Feb-11 19:28N 24°49' E 119°04'4412156.4
2016-Feb-11 19:16N 32°00' E 120°49'441608.7
2016-Feb-11 18:33N 24°49' E 119°05'174326.3
2016-Feb-11 18:32N 24°47' E 118°47'31131066.6
2016-Feb-11 18:32N 23°06' E 113°25'32015558.1
2016-Feb-11 18:31N 24°53' E 118°55'43020373.5
2016-Feb-11 18:29N 31°49' E 120°55'141037.4
2016-Feb-11 18:28N 32°00' E 120°45'4506.4
2016-Feb-11 18:28N 32°00' E 120°49'43926803.6
2016-Feb-11 18:27N 24°53' E 118°55'922.9
2016-Feb-11 18:04N 24°49' E 119°04'431833.8
2016-Feb-11 17:33N 31°49' E 120°55'43840417.1
2016-Feb-11 17:33N 24°47' E 118°47'101697.9
2016-Feb-11 17:32N 24°53' E 118°55'43814342.7
2016-Feb-11 17:30N 32°00' E 120°45'43865740.9
2016-Feb-11 17:30N 24°53' E 118°55'101201.4
2016-Feb-11 17:30N 24°49' E 119°05'144.2
2016-Feb-11 17:28N 24°49' E 119°04'3276320.5
2016-Feb-11 17:25N 23°06' E 113°25'329380.2
2016-Feb-11 16:33N 24°53' E 119°06'193571.0
2016-Feb-11 16:33N 24°47' E 118°47'173200.5
2016-Feb-11 16:33N 24°49' E 119°05'32710911.3
2016-Feb-11 16:31N 23°06' E 113°25'32028090.5
2016-Feb-11 16:30N 24°53' E 118°55'0 4.3
2016-Feb-11 16:29N 24°53' E 118°55'43020919.4
2016-Feb-11 16:28N 31°49' E 120°55'14148.3
2016-Feb-11 16:22N 32°00' E 120°45'440197935.5
2016-Feb-11 16:22N 24°49' E 119°04'4414242.9
2016-Feb-11 16:16N 32°00' E 120°49'443624.1
2016-Feb-11 15:33N 24°48' E 118°59'102673.8
2016-Feb-11 15:33N 24°47' E 118°48'92786.8
2016-Feb-11 15:33N 24°53' E 118°55'101055.2
2016-Feb-11 15:33N 24°49' E 119°05'102888.3
2016-Feb-11 15:32N 24°53' E 118°55'3209215.3
2016-Feb-11 15:30N 23°06' E 113°25'65874061.3
2016-Feb-11 15:30N 31°48' E 120°57'18530.3
2016-Feb-11 15:28N 31°60' E 120°41'363.6
2016-Feb-11 15:25N 31°60' E 120°44'6646446.3
2016-Feb-11 15:19N 22°56' E 113°33'317413.7
2016-Feb-11 14:33N 24°50' E 118°57'440105607.3
2016-Feb-11 14:32N 32°02' E 120°35'43914352.3
2016-Feb-11 14:31N 24°51' E 118°59'6320.7
2016-Feb-11 14:29N 24°49' E 119°05'32310781.9
2016-Feb-11 14:28N 22°56' E 113°33'31631626.9
2016-Feb-11 14:27N 24°53' E 118°55'4391163.7
2016-Feb-11 14:04N 32°00' E 120°49'441853.9
2016-Feb-11 13:33N 24°50' E 118°57'7454.6
2016-Feb-11 13:32N 24°49' E 119°05'44118678.6
2016-Feb-11 13:31N 32°00' E 120°49'66421336.8
2016-Feb-11 13:29N 23°06' E 113°25'32721771.9
2016-Feb-11 13:28N 24°49' E 119°04'32329790.0
2016-Feb-11 13:28N 22°56' E 113°33'6627944.9
2016-Feb-11 13:23N 31°49' E 120°57'19576.2
2016-Feb-11 13:21N 31°60' E 120°39'4342875.3
2016-Feb-11 13:12N 24°53' E 119°03'5 7.8
2016-Feb-11 12:32N 24°49' E 119°05'198.7
2016-Feb-11 12:32N 24°49' E 119°04'4195.7
2016-Feb-11 12:31N 24°53' E 119°02'3269689.7
2016-Feb-11 12:29N 23°06' E 113°25'66324857.0
2016-Feb-11 12:27N 31°58' E 120°51'43453850.0
2016-Feb-11 12:27N 24°54' E 119°07'43617238.3
2016-Feb-11 12:25N 32°00' E 120°49'4413324.9
2016-Feb-11 12:17N 24°49' E 119°04'4329305.1
2016-Feb-11 12:14N 31°49' E 120°57'431632.9
2016-Feb-11 11:33N 24°49' E 119°05'4640.6
2016-Feb-11 11:33N 24°51' E 119°01'44011075.8
2016-Feb-11 11:31N 32°00' E 120°49'66416146.7
2016-Feb-11 11:28N 23°06' E 113°25'121445.1
2016-Feb-11 11:28N 22°56' E 113°33'32389458.5
2016-Feb-11 11:27N 24°50' E 119°04'4311612.8
2016-Feb-11 11:11N 31°49' E 120°57'4339503.7
2016-Feb-11 11:09N 24°47' E 119°04'2 3.8
2016-Feb-11 10:32N 24°50' E 119°05'32320779.2
2016-Feb-11 10:31N 22°56' E 113°33'32121392.9
2016-Feb-11 10:30N 24°51' E 119°01'430386761.7
2016-Feb-11 10:30N 31°49' E 120°57'431119324.5
2016-Feb-11 10:29N 24°50' E 119°04'1766.7
2016-Feb-11 10:29N 24°49' E 119°04'43919291.5
2016-Feb-11 10:28N 31°58' E 120°51'663103752.6
2016-Feb-11 10:28N 23°06' E 113°25'6647091.2
2016-Feb-11 10:22N 32°00' E 120°49'436536.1
2016-Feb-11 09:33N 24°53' E 119°07'3301188665.5
2016-Feb-11 09:33N 23°06' E 113°25'32714337.0
2016-Feb-11 09:32N 24°53' E 119°03'331108192.6
2016-Feb-11 09:32N 23°02' E 113°22'33147607.2
2016-Feb-11 09:31N 24°49' E 119°04'32335209.1
2016-Feb-11 09:31N 22°56' E 113°33'32361134.7
2016-Feb-11 09:30N 24°49' E 119°04'019.0
2016-Feb-11 09:29N 24°49' E 119°04'38514431.8
2016-Feb-11 09:28N 30°57' E 121°12'644415.2
2016-Feb-11 09:27N 31°58' E 120°51'43420542.5
2016-Feb-11 09:26N 24°54' E 119°07'43612347.3
2016-Feb-11 09:24N 32°00' E 120°49'1356.1
2016-Feb-11 09:09N 31°49' E 120°57'43214547.9
2016-Feb-11 09:07N 24°48' E 119°03'389678.9
2016-Feb-11 08:33N 30°58' E 121°18'633227731.8
2016-Feb-11 08:33N 23°05' E 113°28'3631.9
2016-Feb-11 08:33N 23°06' E 113°25'32673323.4
2016-Feb-11 08:32N 24°49' E 119°03'431172359.6
2016-Feb-11 08:32N 31°49' E 120°56'431775726.3
2016-Feb-11 08:32N 24°49' E 119°04'361131.4
2016-Feb-11 08:30N 24°25' E 118°35'408939.4
2016-Feb-11 08:30N 24°53' E 119°06'489.9
2016-Feb-11 08:27N 24°49' E 119°04'1 7.7
2016-Feb-11 08:17N 24°48' E 119°04'346.6
2016-Feb-11 08:13N 24°51' E 119°03'390594.3
2016-Feb-11 07:33N 30°60' E 121°25'392156965.9
2016-Feb-11 07:33N 24°48' E 119°03'32268255.3
2016-Feb-11 07:33N 23°04' E 113°30'32252665.6
2016-Feb-11 07:33N 24°48' E 119°03'32546823.1
2016-Feb-11 07:32N 23°06' E 113°25'32724508.8
2016-Feb-11 07:31N 24°49' E 119°04'32326421.8
2016-Feb-11 07:31N 22°56' E 113°33'66232188.1
2016-Feb-11 07:29N 31°49' E 120°56'43344567.1
2016-Feb-11 07:29N 24°47' E 119°00'329.1
2016-Feb-11 07:22N 24°49' E 119°04'4560.7
2016-Feb-11 07:22N 24°52' E 119°06'40559.2
2016-Feb-11 07:17N 24°25' E 118°34'47045755.6
2016-Feb-11 07:17N 32°00' E 120°49'4404900.8
2016-Feb-11 07:11N 24°50' E 119°06'395626.8
2016-Feb-11 06:34N 31°04' E 121°28'642192634.3
2016-Feb-11 06:33N 23°04' E 113°30'66317419.1
2016-Feb-11 06:31N 32°00' E 120°49'437104838.1
2016-Feb-11 06:31N 24°53' E 119°06'4231.4
2016-Feb-11 06:30N 24°50' E 119°04'189.6
2016-Feb-11 06:29N 24°49' E 119°04'2720.2
2016-Feb-11 06:29N 24°48' E 119°01'34771.6
2016-Feb-11 06:26N 24°25' E 118°34'36513.4
2016-Feb-11 06:22N 24°49' E 119°04'4316208.5
2016-Feb-11 06:18N 31°48' E 120°56'43359902.2
2016-Feb-11 06:17N 24°48' E 119°03'322437.4
2016-Feb-11 05:33N 23°04' E 113°30'32341555.3
2016-Feb-11 05:33N 24°50' E 119°04'3118.7
2016-Feb-11 05:31N 24°53' E 119°06'329394611.2
2016-Feb-11 05:31N 23°06' E 113°25'121398.4
2016-Feb-11 05:31N 22°56' E 113°33'32211603.3
2016-Feb-11 05:29N 24°49' E 119°04'3611895.3
2016-Feb-11 05:29N 24°25' E 118°34'4358556.2
2016-Feb-11 05:26N 31°11' E 121°28'4046956.3
2016-Feb-11 05:22N 24°49' E 119°02'240.0
2016-Feb-11 05:19N 24°49' E 119°04'431172371.8
2016-Feb-11 05:19N 31°48' E 120°57'23183.4
2016-Feb-11 05:11N 31°35' E 121°19'421673.7
2016-Feb-11 04:33N 24°51' E 119°01'36092.0
2016-Feb-11 04:33N 24°49' E 119°04'323129386.3
2016-Feb-11 04:33N 23°04' E 113°30'32329095.1
2016-Feb-11 04:33N 24°49' E 119°04'36487.1
2016-Feb-11 04:28N 24°25' E 118°35'2944816.5
2016-Feb-11 04:25N 23°06' E 113°25'654130767.7
2016-Feb-11 04:24N 31°15' E 121°32'40921013.6
2016-Feb-11 04:23N 24°48' E 119°05'228.2
2016-Feb-11 04:20N 24°49' E 119°04'4313333.5
2016-Feb-11 04:12N 31°48' E 120°57'46123371.7
2016-Feb-11 04:11N 24°25' E 118°35'35688.5
2016-Feb-11 04:08N 24°50' E 119°02'0 0.6
2016-Feb-11 03:33N 24°50' E 119°02'3211157040.1
2016-Feb-11 03:33N 23°04' E 113°30'313376072.4
2016-Feb-11 03:33N 24°49' E 118°53'41618254.5
2016-Feb-11 03:32N 31°20' E 121°33'412741327.4
2016-Feb-11 03:31N 24°49' E 119°05'33342872.5
2016-Feb-11 03:31N 23°06' E 113°18'7474.6
2016-Feb-11 03:30N 23°06' E 113°25'2957929.2
2016-Feb-11 03:28N 24°24' E 118°36'361340.1
2016-Feb-11 03:26N 24°50' E 119°04'377398.3
2016-Feb-11 03:26N 24°25' E 118°34'35415.9
2016-Feb-11 03:21N 24°48' E 119°03'43215862.8
2016-Feb-11 03:19N 31°48' E 120°57'66210977.1
2016-Feb-11 03:16N 22°56' E 113°33'3234538.0
2016-Feb-11 03:11N 24°49' E 119°04'323509.1
2016-Feb-11 02:33N 23°04' E 113°30'65651373.1
2016-Feb-11 02:33N 31°23' E 121°30'41445134.0
2016-Feb-11 02:32N 24°51' E 118°58'413743316.4
2016-Feb-11 02:32N 31°22' E 121°30'3910050.3
2016-Feb-11 02:32N 31°48' E 120°57'43191333.1
2016-Feb-11 02:31N 24°49' E 119°03'32510949.9
2016-Feb-11 02:30N 23°06' E 113°25'32798127.1
2016-Feb-11 02:29N 24°49' E 119°05'171995.5
2016-Feb-11 02:29N 24°47' E 118°47'165622.7
2016-Feb-11 02:29N 24°50' E 119°03'3236488.9
2016-Feb-11 02:26N 22°56' E 113°33'66839414.4
2016-Feb-11 02:25N 32°00' E 120°49'43910530.4
2016-Feb-11 02:22N 24°51' E 119°05'411505.5
2016-Feb-11 01:34N 31°21' E 121°30'656181631.8
2016-Feb-11 01:33N 23°04' E 113°30'65860779.1
2016-Feb-11 01:33N 31°24' E 121°31'448179107.2
2016-Feb-11 01:32N 24°25' E 118°33'372913.6
2016-Feb-11 01:32N 24°50' E 119°04'82255.8
2016-Feb-11 01:32N 24°53' E 118°55'9241.5
2016-Feb-11 01:29N 24°50' E 119°05'1760355.5
2016-Feb-11 01:29N 24°47' E 118°47'311124245.7
2016-Feb-11 01:29N 23°06' E 113°25'32690301.4
2016-Feb-11 01:29N 24°49' E 119°04'44135301.2
2016-Feb-11 01:28N 32°00' E 120°49'13950.9
2016-Feb-11 01:27N 31°48' E 120°57'431479.0
2016-Feb-11 00:33N 24°49' E 119°05'124148.7
2016-Feb-11 00:33N 24°50' E 118°52'1112939.4
2016-Feb-11 00:33N 24°50' E 119°04'32497205.6
2016-Feb-11 00:33N 23°04' E 113°29'29061409.8
2016-Feb-11 00:33N 24°25' E 118°33'45057910.1
2016-Feb-11 00:32N 31°29' E 121°24'41837614.6
2016-Feb-11 00:32N 24°53' E 118°55'93896.8
2016-Feb-11 00:31N 24°48' E 119°03'228.3
2016-Feb-11 00:28N 24°49' E 119°04'1270.2
2016-Feb-11 00:28N 24°48' E 119°05'43130450.6
2016-Feb-11 00:27N 31°48' E 120°57'4615092.9
2016-Feb-11 00:21N 24°24' E 118°35'2943580.0
2016-Feb-11 00:16N 23°06' E 113°25'6643132.2
2016-Feb-11 00:04N 32°00' E 120°49'442866.7
2016-Feb-10 23:33N 24°48' E 119°05'32512.3
2016-Feb-10 23:33N 24°52' E 119°05'21343.3
2016-Feb-10 23:33N 24°50' E 119°04'9358.7
2016-Feb-10 23:32N 24°53' E 118°55'421505374.1
2016-Feb-10 23:31N 31°35' E 121°18'65926065.4
2016-Feb-10 23:30N 23°04' E 113°29'29140293.8
2016-Feb-10 23:30N 24°25' E 118°34'362805.3
2016-Feb-10 23:29N 24°49' E 119°04'2191.6
2016-Feb-10 23:28N 24°49' E 119°07'3280.0
2016-Feb-10 23:27N 24°48' E 119°04'3263665.5
2016-Feb-10 23:22N 23°06' E 113°25'328402.3
2016-Feb-10 22:33N 24°52' E 119°05'31936.9
2016-Feb-10 22:33N 24°49' E 119°03'078.6
2016-Feb-10 22:33N 24°49' E 119°03'1528.6
2016-Feb-10 22:33N 24°48' E 119°04'1147.5
2016-Feb-10 22:32N 24°49' E 119°05'10920.9
2016-Feb-10 22:32N 24°53' E 118°55'9730.6
2016-Feb-10 22:31N 24°48' E 119°03'32236262.9
2016-Feb-10 22:30N 23°04' E 113°29'3228532.8
2016-Feb-10 22:28N 24°48' E 119°03'442.0
2016-Feb-10 22:23N 24°50' E 119°06'425382231.1
2016-Feb-10 22:23N 31°40' E 121°11'4253020.9
2016-Feb-10 22:14N 24°51' E 119°06'6890.0
2016-Feb-10 22:14N 24°47' E 119°01'3231872.8
2016-Feb-10 22:03N 23°06' E 113°25'325646.0
2016-Feb-10 21:33N 24°48' E 119°03'325390044.6
2016-Feb-10 21:33N 23°06' E 113°25'4294.3
2016-Feb-10 21:32N 23°04' E 113°29'31724819.4
2016-Feb-10 21:32N 24°53' E 118°55'42715209.1
2016-Feb-10 21:30N 31°43' E 121°06'42937655.6
2016-Feb-10 21:29N 24°49' E 119°03'2169.1
2016-Feb-10 21:28N 24°47' E 119°02'3655.6
2016-Feb-10 21:28N 24°49' E 119°05'4413035.3
2016-Feb-10 21:19N 32°00' E 120°49'4405403.3
2016-Feb-10 21:15N 24°50' E 119°06'235.5
2016-Feb-10 21:12N 24°49' E 119°04'117.2
2016-Feb-10 21:09N 24°50' E 119°05'324538.3
2016-Feb-10 20:33N 23°04' E 113°29'32329074.2
2016-Feb-10 20:33N 24°49' E 119°04'326586685.5
2016-Feb-10 20:33N 23°06' E 113°25'32851284.3
2016-Feb-10 20:32N 24°50' E 119°05'9808.0
2016-Feb-10 20:32N 24°53' E 118°55'985.9
2016-Feb-10 20:25N 24°50' E 119°05'4401728.4
2016-Feb-10 20:10N 32°00' E 120°49'6631089.1
2016-Feb-10 19:33N 23°04' E 113°29'31639188.4
2016-Feb-10 19:33N 24°50' E 118°55'8100.9
2016-Feb-10 19:28N 24°49' E 119°04'3262434.4
2016-Feb-10 19:20N 23°06' E 113°25'4 5.2
2016-Feb-10 18:33N 23°04' E 113°29'4140.3
2016-Feb-10 18:32N 23°06' E 113°25'6648850.5
2016-Feb-10 18:27N 32°00' E 120°49'4919934.5
2016-Feb-10 18:24N 24°09' E 118°12'655555.8
2016-Feb-10 18:23N 24°50' E 119°07'6273.6
2016-Feb-10 17:33N 24°17' E 118°10'26748078.6
2016-Feb-10 17:33N 23°04' E 113°29'4155.7
2016-Feb-10 17:31N 23°06' E 113°25'66428114.5
2016-Feb-10 17:30N 32°00' E 120°49'67123693.5
2016-Feb-10 17:28N 22°52' E 113°33'66920747.4
2016-Feb-10 17:26N 32°01' E 120°43'2480.7
2016-Feb-10 17:08N 31°45' E 121°04'6591136.9
2016-Feb-10 16:33N 23°04' E 113°29'31537777.3
2016-Feb-10 16:33N 24°44' E 118°56'31610326.2
2016-Feb-10 16:31N 22°52' E 113°33'163059.0
2016-Feb-10 16:31N 23°06' E 113°25'31714434.2
2016-Feb-10 16:29N 24°45' E 118°54'4368052.2
2016-Feb-10 16:26N 31°47' E 120°60'433494.1
2016-Feb-10 15:34N 24°48' E 118°57'31781435.0
2016-Feb-10 15:33N 23°04' E 113°29'65891068.3
2016-Feb-10 15:33N 31°50' E 120°54'65814453.6
2016-Feb-10 15:30N 23°06' E 113°25'6642421.2
2016-Feb-10 15:14N 32°00' E 120°49'6714152.5
2016-Feb-10 15:04N 22°52' E 113°33'1325.4
2016-Feb-10 14:33N 23°04' E 113°29'32418831.8
2016-Feb-10 14:32N 24°54' E 119°03'43592091.9
2016-Feb-10 14:32N 31°58' E 120°51'67010921.6
2016-Feb-10 14:28N 22°52' E 113°33'1693.0
2016-Feb-10 14:18N 23°06' E 113°25'4 5.5
2016-Feb-10 13:33N 23°04' E 113°29'65819899.1
2016-Feb-10 13:31N 31°48' E 120°57'14229.0
2016-Feb-10 13:28N 32°00' E 120°49'6648504.4
2016-Feb-10 13:23N 23°06' E 113°25'6613370.2
2016-Feb-10 13:11N 32°01' E 120°43'660958.1
2016-Feb-10 12:30N 23°04' E 113°29'65616291.5
2016-Feb-10 12:28N 31°21' E 121°30'3823087.2
2016-Feb-10 12:27N 31°47' E 120°57'47126105.8
2016-Feb-10 12:26N 24°19' E 118°11'2714248.4
2016-Feb-10 12:23N 23°06' E 113°25'3221403.3
2016-Feb-10 12:09N 24°46' E 118°60'3 5.3
2016-Feb-10 11:33N 24°49' E 119°02'322105230.5
2016-Feb-10 11:33N 23°04' E 113°29'656787421.5
2016-Feb-10 11:33N 31°21' E 121°30'449287.0
2016-Feb-10 11:32N 31°52' E 120°53'66715099.3
2016-Feb-10 11:30N 22°51' E 113°33'1671.7
2016-Feb-10 11:16N 23°06' E 113°25'358485.5
2016-Feb-10 10:32N 25°17' E 119°30'40722524.5
2016-Feb-10 10:31N 31°57' E 120°51'66252957.9
2016-Feb-10 10:30N 23°04' E 113°29'65627791.3
2016-Feb-10 10:29N 31°21' E 121°30'4126371.2
2016-Feb-10 10:25N 24°50' E 119°02'39274.8
2016-Feb-10 10:16N 25°18' E 119°32'378527.2
2016-Feb-10 09:33N 31°20' E 121°33'658263107.1
2016-Feb-10 09:33N 23°06' E 113°25'66350774.1
2016-Feb-10 09:32N 31°59' E 120°49'44210266.4
2016-Feb-10 09:30N 24°47' E 119°01'4167915.4
2016-Feb-10 09:27N 31°21' E 121°30'656739.1
2016-Feb-10 08:33N 23°04' E 113°29'32129658.6
2016-Feb-10 08:33N 24°50' E 119°01'324233407.3
2016-Feb-10 08:33N 23°06' E 113°25'65976543.5
2016-Feb-10 08:32N 31°24' E 121°31'503915.4
2016-Feb-10 08:31N 31°59' E 120°49'51821.1
2016-Feb-10 08:28N 31°21' E 121°30'521716.1
2016-Feb-10 08:26N 32°00' E 120°49'101592.8
2016-Feb-10 08:25N 32°00' E 120°37'478548.8
2016-Feb-10 07:33N 24°24' E 117°57'26015893.9
2016-Feb-10 07:32N 23°06' E 113°25'660339266.3
2016-Feb-10 07:32N 31°28' E 121°27'6592371485.8
2016-Feb-10 07:32N 23°04' E 113°29'3208793.2
2016-Feb-10 07:30N 24°48' E 119°00'41619683.5
2016-Feb-10 07:29N 31°21' E 121°30'52916.5
2016-Feb-10 07:25N 32°00' E 120°49'1210.9
2016-Feb-10 07:25N 31°59' E 120°49'6702109.9
2016-Feb-10 07:06N 22°51' E 113°33'6701235.9
2016-Feb-10 06:33N 31°59' E 120°49'662340569.7
2016-Feb-10 06:33N 23°04' E 113°29'6565284.8
2016-Feb-10 06:26N 31°21' E 121°30'6576499.5
2016-Feb-10 06:19N 23°06' E 113°25'4 5.2
2016-Feb-10 05:33N 23°04' E 113°29'6562218.1
2016-Feb-10 05:16N 31°21' E 121°30'511632.9
2016-Feb-10 05:14N 31°59' E 120°49'66353027.6
2016-Feb-10 05:13N 23°06' E 113°25'16108.1
2016-Feb-10 05:04N 22°52' E 113°33'6701313.7
2016-Feb-10 04:33N 31°59' E 120°49'66256760.5
2016-Feb-10 04:33N 23°04' E 113°29'65849350.9
2016-Feb-10 04:32N 31°29' E 121°24'91737.6
2016-Feb-10 04:32N 31°21' E 121°30'66470254.7
2016-Feb-10 04:31N 22°52' E 113°33'16150.5
2016-Feb-10 04:25N 23°06' E 113°25'3263600.1
2016-Feb-10 04:19N 24°51' E 119°03'323423.5
2016-Feb-10 03:33N 23°04' E 113°29'658131602.3
2016-Feb-10 03:33N 31°29' E 121°24'4317358.5
2016-Feb-10 03:33N 32°00' E 120°49'44310349.1
2016-Feb-10 03:30N 24°48' E 118°59'32282853.1
2016-Feb-10 03:30N 23°06' E 113°25'66351877.7
2016-Feb-10 03:29N 31°59' E 120°49'514192.2
2016-Feb-10 03:29N 31°21' E 121°30'66466353.9
2016-Feb-10 03:28N 22°52' E 113°33'666734.0
2016-Feb-10 02:34N 31°29' E 121°24'658182341.9
2016-Feb-10 02:33N 23°04' E 113°29'31760087.0
2016-Feb-10 02:33N 24°53' E 118°55'43823186.4
2016-Feb-10 02:32N 31°59' E 120°49'51297.3
2016-Feb-10 02:22N 31°21' E 121°30'66415510.9
2016-Feb-10 02:19N 22°52' E 113°33'16625.4
2016-Feb-10 02:17N 23°06' E 113°25'6633720.1
2016-Feb-10 02:07N 31°58' E 120°51'3970.4
2016-Feb-10 01:33N 31°30' E 121°23'658112862.1
2016-Feb-10 01:33N 23°04' E 113°29'66216907.5
2016-Feb-10 01:31N 31°59' E 120°49'2 8.4
2016-Feb-10 01:19N 31°58' E 120°51'43858369.0
2016-Feb-10 01:18N 24°53' E 118°55'32014955.3
2016-Feb-10 01:17N 23°06' E 113°25'6573622.7
2016-Feb-10 01:06N 31°21' E 121°30'6561203.4
2016-Feb-10 00:33N 23°04' E 113°29'317163079.3
2016-Feb-10 00:33N 24°53' E 118°55'4189967.6
2016-Feb-10 00:31N 31°30' E 121°22'65918388.8
2016-Feb-10 00:29N 23°06' E 113°25'66321893.6
2016-Feb-10 00:27N 31°59' E 120°49'217.1
2016-Feb-10 00:20N 31°60' E 120°47'4199.9
2016-Feb-10 00:19N 32°01' E 120°43'439578.9
2016-Feb-09 23:33N 24°53' E 118°55'3174878.4
2016-Feb-09 23:29N 23°04' E 113°29'4191.1
2016-Feb-09 23:28N 23°06' E 113°25'16547.8
2016-Feb-09 23:26N 22°51' E 113°34'67015773.9
2016-Feb-09 23:24N 31°59' E 120°49'1 4.5
2016-Feb-09 23:04N 32°00' E 120°49'6711266.8
2016-Feb-09 22:33N 22°51' E 113°33'132077.1
2016-Feb-09 22:32N 23°04' E 113°29'31812189.2
2016-Feb-09 22:31N 24°52' E 118°57'439105243.0
2016-Feb-09 22:30N 31°58' E 120°51'66313417.5
2016-Feb-09 22:27N 23°06' E 113°25'66362800.2
2016-Feb-09 22:27N 31°59' E 120°49'662741.5
2016-Feb-09 21:33N 23°04' E 113°29'41322.1
2016-Feb-09 21:33N 23°06' E 113°25'66462887.8
2016-Feb-09 21:32N 32°00' E 120°49'1103.7
2016-Feb-09 21:32N 31°59' E 120°49'67019783.9
2016-Feb-09 21:30N 22°51' E 113°33'1314.1
2016-Feb-09 20:33N 23°04' E 113°29'131165.2
2016-Feb-09 20:33N 22°51' E 113°33'1658675.0
2016-Feb-09 20:33N 23°06' E 113°25'66322726.4
2016-Feb-09 20:31N 31°59' E 120°49'662690.2
2016-Feb-09 19:33N 23°04' E 113°29'4210.2
2016-Feb-09 19:32N 23°06' E 113°25'66313955.6
2016-Feb-09 19:29N 31°59' E 120°49'152.1
2016-Feb-09 19:28N 32°00' E 120°49'663731.2
2016-Feb-09 18:33N 23°04' E 113°29'4145.1
2016-Feb-09 18:32N 23°06' E 113°25'6636817.8
2016-Feb-09 18:26N 31°59' E 120°49'1 4.1
2016-Feb-09 18:06N 32°00' E 120°49'6631235.1
2016-Feb-09 17:33N 23°04' E 113°29'131168.7
2016-Feb-09 17:33N 22°51' E 113°33'67035495.3
2016-Feb-09 17:31N 31°59' E 120°49'6636182.4
2016-Feb-09 17:25N 23°06' E 113°25'6649156.1
2016-Feb-09 17:21N 32°00' E 120°49'663839.1
2016-Feb-09 16:33N 23°04' E 113°29'66321688.4
2016-Feb-09 16:31N 31°60' E 120°49'66345925.5
2016-Feb-09 16:31N 23°06' E 113°25'65738783.9
2016-Feb-09 16:30N 31°21' E 121°30'53340.0
2016-Feb-09 16:20N 32°00' E 120°49'663846.6
2016-Feb-09 15:33N 23°04' E 113°29'663397891.0
2016-Feb-09 15:33N 32°00' E 120°49'531871.7
2016-Feb-09 15:32N 31°21' E 121°30'65728164.5
2016-Feb-09 15:30N 23°06' E 113°25'6571616.1
2016-Feb-09 15:06N 32°00' E 120°37'6571214.7
2016-Feb-09 14:33N 23°04' E 113°29'65631082.1
2016-Feb-09 14:32N 31°21' E 121°30'66437322.7
2016-Feb-09 14:31N 22°52' E 113°33'1313.4
2016-Feb-09 13:32N 23°04' E 113°29'1360.6
2016-Feb-09 13:19N 22°52' E 113°33'16496.8
2016-Feb-09 13:17N 23°06' E 113°25'6645583.5
2016-Feb-09 13:10N 32°00' E 120°49'521409.1
2016-Feb-09 13:08N 31°21' E 121°30'6561135.7
2016-Feb-09 12:33N 23°04' E 113°29'65690854.5
2016-Feb-09 12:33N 31°21' E 121°30'6573942.9
2016-Feb-09 12:23N 23°06' E 113°25'6634139.5
2016-Feb-09 12:13N 31°58' E 120°51'5076.0
2016-Feb-09 11:34N 31°21' E 121°30'111824.2
2016-Feb-09 11:33N 31°30' E 121°22'6597802.0
2016-Feb-09 11:28N 23°06' E 113°25'4501.5
2016-Feb-09 11:28N 23°04' E 113°29'66314460.7
2016-Feb-09 11:25N 31°58' E 120°51'315.3
2016-Feb-09 11:15N 32°00' E 120°49'663948.1
2016-Feb-09 10:33N 23°04' E 113°29'6632822.0
2016-Feb-09 10:19N 32°00' E 120°49'66411714.3
2016-Feb-09 10:15N 23°06' E 113°25'65713440.4
2016-Feb-09 10:13N 31°21' E 121°30'657999.8
2016-Feb-09 09:33N 23°06' E 113°25'41472.3
2016-Feb-09 09:33N 23°04' E 113°29'65627791.0
2016-Feb-09 09:32N 31°21' E 121°30'11405.5
2016-Feb-09 09:30N 31°31' E 121°23'41134.4
2016-Feb-09 09:11N 32°00' E 120°49'6641023.5
2016-Feb-09 08:33N 23°06' E 113°25'65998920.8
2016-Feb-09 08:32N 31°31' E 121°23'65917960.6
2016-Feb-09 08:30N 23°04' E 113°29'6564696.3
2016-Feb-09 08:22N 31°21' E 121°30'52693.7
2016-Feb-09 08:17N 32°00' E 120°49'663902.6
2016-Feb-09 07:33N 23°04' E 113°29'65971841.0
2016-Feb-09 07:32N 31°31' E 121°23'65998921.5
2016-Feb-09 07:32N 23°06' E 113°25'663265387.9
2016-Feb-09 07:32N 31°58' E 120°51'502218.1
2016-Feb-09 07:31N 31°21' E 121°30'522949.7
2016-Feb-09 07:29N 32°00' E 120°49'4143.3
2016-Feb-09 06:33N 31°31' E 121°23'65944732.2
2016-Feb-09 06:32N 23°04' E 113°29'42413.1
2016-Feb-09 06:32N 23°06' E 113°25'664132769.5
2016-Feb-09 06:31N 32°00' E 120°49'52248.6
2016-Feb-09 06:19N 31°21' E 121°30'6643995.0
2016-Feb-09 06:09N 22°51' E 113°33'6661138.2
2016-Feb-09 05:33N 31°31' E 121°23'65946487.1
2016-Feb-09 05:33N 23°04' E 113°29'6565545.2
2016-Feb-09 05:26N 31°21' E 121°30'65725715.6
2016-Feb-09 05:24N 23°06' E 113°25'6572041.3
2016-Feb-09 05:05N 31°21' E 121°30'6561253.9
2016-Feb-09 04:33N 23°04' E 113°29'6592370840.7
2016-Feb-09 04:33N 31°31' E 121°23'1096.5
2016-Feb-09 04:27N 31°24' E 121°31'3256.4
2016-Feb-09 04:27N 31°21' E 121°30'9 9.8
2016-Feb-09 03:33N 31°29' E 121°25'659593029.4
2016-Feb-09 03:33N 23°04' E 113°29'458.2
2016-Feb-09 03:29N 23°06' E 113°25'4 4.5
2016-Feb-09 02:33N 23°04' E 113°29'65818662.9
2016-Feb-09 02:31N 31°24' E 121°31'65917200.8
2016-Feb-09 02:29N 23°06' E 113°25'65719392.5
2016-Feb-09 02:27N 31°21' E 121°30'656739.6
2016-Feb-09 01:33N 23°04' E 113°29'422.3
2016-Feb-09 01:22N 23°06' E 113°25'6594844.3
2016-Feb-09 01:14N 31°24' E 121°31'658968.2
2016-Feb-09 00:33N 23°04' E 113°29'446.4
2016-Feb-09 00:28N 23°06' E 113°25'1646.8
2016-Feb-09 00:06N 22°51' E 113°34'1323.7
2016-Feb-08 23:33N 23°04' E 113°29'421.1
2016-Feb-08 23:21N 23°06' E 113°25'0 0.0
2016-Feb-08 22:33N 23°06' E 113°25'440.2
2016-Feb-08 22:26N 23°04' E 113°29'0 0.0
2016-Feb-08 21:33N 23°04' E 113°29'0 0.0
2016-Feb-08 20:32N 23°04' E 113°29'437.3
2016-Feb-08 20:25N 23°06' E 113°25'4 4.8
2016-Feb-08 19:33N 23°04' E 113°29'431.8
2016-Feb-08 19:25N 23°06' E 113°25'4 4.8
2016-Feb-08 18:32N 23°04' E 113°29'4 9.7
2016-Feb-08 18:06N 23°06' E 113°25'4 7.7
2016-Feb-08 17:34N 23°04' E 113°29'474.2
2016-Feb-08 17:30N 23°06' E 113°25'16326.6
2016-Feb-08 17:27N 22°51' E 113°33'1314.8
2016-Feb-08 16:33N 23°04' E 113°29'4 8.9
2016-Feb-08 16:05N 23°06' E 113°25'4 7.6
2016-Feb-08 15:32N 23°04' E 113°29'0 0.0
2016-Feb-08 14:33N 23°04' E 113°29'450.7
2016-Feb-08 14:29N 23°06' E 113°25'4 4.5
2016-Feb-08 13:33N 23°04' E 113°29'422.5
2016-Feb-08 13:22N 23°06' E 113°25'12755.5
2016-Feb-08 13:21N 22°56' E 113°33'549.9
2016-Feb-08 13:15N 22°52' E 113°33'1318.7
2016-Feb-08 12:33N 23°04' E 113°29'6565113.2
2016-Feb-08 12:25N 31°21' E 121°30'65710241.9
2016-Feb-08 12:22N 23°06' E 113°25'16277.1
2016-Feb-08 12:18N 22°52' E 113°33'1317.6
2016-Feb-08 11:33N 23°04' E 113°29'4723.5
2016-Feb-08 11:33N 23°06' E 113°25'65710953.1
2016-Feb-08 11:30N 31°21' E 121°30'657693.2
2016-Feb-08 10:33N 23°06' E 113°25'659790752.8
2016-Feb-08 10:33N 31°30' E 121°22'65821934.4
2016-Feb-08 10:31N 23°04' E 113°29'6564241.1
2016-Feb-08 10:22N 31°21' E 121°30'656814.0
2016-Feb-08 09:33N 23°04' E 113°29'6564569.2
2016-Feb-08 09:25N 31°21' E 121°30'66426843.7
2016-Feb-08 09:23N 22°51' E 113°33'16330.7
2016-Feb-08 09:20N 23°06' E 113°25'4 5.4
2016-Feb-08 08:33N 23°04' E 113°29'432.3
2016-Feb-08 08:26N 23°06' E 113°25'6578510.3
2016-Feb-08 08:21N 31°21' E 121°30'656828.9
2016-Feb-08 07:34N 23°04' E 113°29'417.5
2016-Feb-08 07:19N 23°06' E 113°25'6554581.4
2016-Feb-08 07:11N 31°21' E 121°27'6541062.2
2016-Feb-08 06:34N 23°04' E 113°29'485.9
2016-Feb-08 06:31N 23°06' E 113°25'65534697.5
2016-Feb-08 06:30N 31°21' E 121°27'654701.8
2016-Feb-08 05:34N 23°04' E 113°29'65419310.7
2016-Feb-08 05:32N 31°21' E 121°27'4585803.9
2016-Feb-08 05:27N 24°24' E 117°55'2595830.6
2016-Feb-08 05:24N 23°06' E 113°25'4 4.8
2016-Feb-08 04:34N 23°04' E 113°29'462.9
2016-Feb-08 04:30N 23°06' E 113°25'6559475.2
2016-Feb-08 04:26N 31°21' E 121°27'654750.5
2016-Feb-08 03:33N 23°04' E 113°29'65410660.3
2016-Feb-08 03:30N 31°21' E 121°27'6552127.4
2016-Feb-08 03:11N 23°06' E 113°25'4 6.3
2016-Feb-08 02:33N 23°04' E 113°29'6542941.2
2016-Feb-08 02:20N 31°21' E 121°27'65513107.4
2016-Feb-08 02:17N 23°06' E 113°25'4 5.6
2016-Feb-08 01:33N 23°04' E 113°29'2893976.1
2016-Feb-08 01:29N 24°26' E 118°32'2922726.5
2016-Feb-08 01:22N 23°06' E 113°25'4 5.1
2016-Feb-08 00:34N 23°04' E 113°29'441.8
2016-Feb-08 00:28N 23°06' E 113°25'2921142.4
2016-Feb-08 00:12N 24°25' E 118°33'289440.1
2016-Feb-07 23:33N 23°04' E 113°29'0 0.0
2016-Feb-07 22:33N 23°04' E 113°29'441.7
2016-Feb-07 22:27N 23°06' E 113°25'29319875.1
2016-Feb-07 22:26N 24°26' E 118°33'290328.6
2016-Feb-07 21:33N 23°04' E 113°29'419.3
2016-Feb-07 21:20N 23°06' E 113°25'4 5.2
2016-Feb-07 20:33N 23°04' E 113°29'4216.9
2016-Feb-07 20:32N 23°06' E 113°25'4 4.2
2016-Feb-07 19:34N 23°04' E 113°29'4103.9
2016-Feb-07 19:31N 23°06' E 113°25'4 4.2
2016-Feb-07 18:33N 23°04' E 113°29'498.3
2016-Feb-07 18:31N 23°06' E 113°25'16212.4
2016-Feb-07 18:26N 22°51' E 113°33'1315.2
2016-Feb-07 17:34N 23°04' E 113°29'474.9
2016-Feb-07 17:30N 23°06' E 113°25'4 4.3
2016-Feb-07 16:34N 23°04' E 113°29'1250.8
2016-Feb-07 16:19N 23°07' E 113°16'938.2
2016-Feb-07 16:05N 23°06' E 113°25'4 7.3
2016-Feb-07 15:32N 23°04' E 113°29'1148.9
2016-Feb-07 15:19N 23°06' E 113°18'65910187.3
2016-Feb-07 15:15N 31°21' E 121°27'654939.4
2016-Feb-07 14:33N 23°04' E 113°29'11280.9
2016-Feb-07 14:31N 23°06' E 113°18'65928597.6
2016-Feb-07 14:30N 31°21' E 121°27'65549152.7
2016-Feb-07 14:29N 23°06' E 113°25'4 4.4
2016-Feb-07 13:34N 23°04' E 113°29'11203.4
2016-Feb-07 13:30N 23°06' E 113°18'6595061.0
2016-Feb-07 13:23N 31°21' E 121°27'655102579.6
2016-Feb-07 13:22N 23°06' E 113°25'1650.9
2016-Feb-07 13:03N 22°52' E 113°33'1326.7
2016-Feb-07 12:34N 23°04' E 113°29'6547117.5
2016-Feb-07 12:28N 31°21' E 121°27'6553175.4
2016-Feb-07 12:16N 23°06' E 113°25'0 0.0
2016-Feb-07 11:33N 23°06' E 113°25'4309.2
2016-Feb-07 11:33N 23°04' E 113°29'6542355940.9
2016-Feb-07 11:32N 31°21' E 121°27'6597705.7
2016-Feb-07 11:27N 23°06' E 113°18'6673295.2
2016-Feb-07 11:15N 32°00' E 120°49'663954.6
2016-Feb-07 10:34N 23°04' E 113°29'6542355900.4
2016-Feb-07 10:34N 31°21' E 121°27'65921383.6
2016-Feb-07 10:32N 23°06' E 113°18'724.6
2016-Feb-07 10:15N 23°06' E 113°25'0 0.0
2016-Feb-07 09:32N 23°06' E 113°25'7717.8
2016-Feb-07 09:32N 23°06' E 113°18'65912625.5
2016-Feb-07 09:29N 31°21' E 121°27'655693.1
2016-Feb-07 08:32N 23°06' E 113°25'72791.4
2016-Feb-07 08:32N 23°06' E 113°18'6599973.1
2016-Feb-07 08:28N 31°21' E 121°27'655697.4
2016-Feb-07 07:31N 23°06' E 113°25'65514127.7
2016-Feb-07 07:29N 31°21' E 121°27'0 0.0
2016-Feb-07 06:33N 31°21' E 121°27'65522470.0
2016-Feb-07 06:31N 23°06' E 113°25'655663.5
2016-Feb-07 05:32N 31°21' E 121°27'6555362.1
2016-Feb-07 05:24N 23°06' E 113°25'4 4.8
2016-Feb-07 04:33N 23°04' E 113°29'6543370.5
2016-Feb-07 04:22N 31°21' E 121°27'6559997.2
2016-Feb-07 04:18N 23°06' E 113°25'4 5.4
2016-Feb-07 03:33N 23°04' E 113°29'460.7
2016-Feb-07 03:29N 23°06' E 113°25'6551737.4
2016-Feb-07 03:07N 31°21' E 121°27'6541164.6
2016-Feb-07 02:33N 23°04' E 113°29'423.7
2016-Feb-07 02:23N 23°06' E 113°25'655294916.2
2016-Feb-07 02:23N 31°21' E 121°27'654796.5
2016-Feb-07 01:33N 23°04' E 113°29'65454789.7
2016-Feb-07 01:33N 31°21' E 121°27'6551376.5
2016-Feb-07 01:04N 23°06' E 113°25'4 7.9
2016-Feb-07 00:33N 23°04' E 113°29'443.9
2016-Feb-07 00:28N 23°06' E 113°25'65558983.7
2016-Feb-07 00:27N 31°21' E 121°27'655730.9
2016-Feb-06 23:33N 23°06' E 113°25'414759.7
2016-Feb-06 23:33N 23°04' E 113°29'6582533.8
2016-Feb-06 23:18N 31°32' E 121°20'658882.7
2016-Feb-06 22:33N 23°04' E 113°29'439.4
2016-Feb-06 22:27N 23°06' E 113°25'4 4.6
2016-Feb-06 21:33N 23°04' E 113°29'4238.1
2016-Feb-06 21:32N 23°06' E 113°25'4 4.2
2016-Feb-06 20:33N 23°04' E 113°29'4546.7
2016-Feb-06 20:33N 23°06' E 113°25'4 4.2
2016-Feb-06 19:33N 23°04' E 113°29'4107.7
2016-Feb-06 19:31N 23°06' E 113°25'6596159.9
2016-Feb-06 19:25N 31°32' E 121°20'658769.0
2016-Feb-06 18:33N 23°04' E 113°29'488.4
2016-Feb-06 18:31N 23°06' E 113°25'4 4.3
2016-Feb-06 17:33N 23°04' E 113°29'475.3
2016-Feb-06 17:30N 23°06' E 113°25'65991216.7
2016-Feb-06 17:30N 31°32' E 121°20'658701.1
2016-Feb-06 16:33N 23°04' E 113°29'411.2
2016-Feb-06 16:11N 23°06' E 113°25'4 6.3
2016-Feb-06 15:33N 23°04' E 113°29'6589951.9
2016-Feb-06 15:29N 31°32' E 121°20'22117.6
2016-Feb-06 15:17N 31°47' E 121°00'659103183.0
2016-Feb-06 15:17N 23°06' E 113°25'4 5.5
2016-Feb-06 14:33N 23°04' E 113°29'451.5
2016-Feb-06 14:29N 23°06' E 113°25'4 4.3
2016-Feb-06 13:33N 23°04' E 113°29'6603170.5
2016-Feb-06 13:20N 31°42' E 121°09'25158.4
2016-Feb-06 13:11N 31°21' E 121°27'65571495.3
2016-Feb-06 13:10N 23°06' E 113°25'4 7.2
2016-Feb-06 12:33N 23°04' E 113°29'41678.0
2016-Feb-06 12:33N 23°06' E 113°25'66169963.4
2016-Feb-06 12:33N 31°40' E 121°12'2396.4
2016-Feb-06 12:19N 31°21' E 121°27'655856.4
2016-Feb-06 11:33N 23°01' E 113°31'7350.8
2016-Feb-06 11:31N 22°55' E 113°30'66113757.2
2016-Feb-06 11:29N 31°21' E 121°27'19100.9
2016-Feb-06 11:17N 31°38' E 121°16'665903.3
2016-Feb-06 10:33N 22°55' E 113°33'66412020.7
2016-Feb-06 10:30N 31°36' E 121°18'3 3.2
2016-Feb-06 09:33N 31°34' E 121°20'6676840.2
2016-Feb-06 09:27N 22°50' E 113°35'666738.1
2016-Feb-06 08:33N 31°31' E 121°22'6677435.7
2016-Feb-06 08:28N 22°47' E 113°37'3 3.4
2016-Feb-06 07:32N 22°45' E 113°39'668610.2
2016-Feb-06 06:27N 31°30' E 121°23'0 0.1
2016-Feb-06 05:30N 31°30' E 121°23'0 0.0
2016-Feb-06 04:24N 31°30' E 121°23'910.1
2016-Feb-06 03:30N 31°21' E 121°27'9188.3
2016-Feb-06 03:27N 31°30' E 121°23'46284.3
2016-Feb-06 03:17N 32°01' E 120°43'5566.6
2016-Feb-06 02:28N 31°21' E 121°27'931.2
2016-Feb-06 02:10N 31°30' E 121°23'4661.7
2016-Feb-06 01:26N 32°01' E 120°44'46414.7
2016-Feb-06 01:19N 31°30' E 121°23'4355.4
2016-Feb-06 00:32N 32°01' E 120°48'523257.7
2016-Feb-06 00:32N 31°21' E 121°27'511363.7
2016-Feb-06 00:29N 32°00' E 120°49'6637510.3
2016-Feb-06 00:24N 23°03' E 113°30'1 1.3
2016-Feb-05 23:33N 23°04' E 113°29'660396151.0
2016-Feb-05 23:33N 32°01' E 120°43'942.4
2016-Feb-05 23:20N 31°57' E 120°52'419.9
2016-Feb-05 23:08N 32°00' E 120°49'811.3
2016-Feb-05 22:27N 31°54' E 120°53'1293.4
2016-Feb-05 22:20N 32°01' E 120°43'660840.2
2016-Feb-05 21:33N 23°04' E 113°29'6635068.3
2016-Feb-05 21:25N 32°00' E 120°49'0 0.1
2016-Feb-05 20:28N 32°00' E 120°49'6637148.0
2016-Feb-05 20:22N 23°04' E 113°29'65828197.9
2016-Feb-05 20:21N 31°47' E 120°59'663824.0
2016-Feb-05 19:33N 23°02' E 113°23'66327137.7
2016-Feb-05 19:31N 31°30' E 121°23'42155.9
2016-Feb-05 19:15N 32°00' E 120°49'2330.2
2016-Feb-05 18:29N 31°44' E 121°08'6 5.3
2016-Feb-05 17:20N 31°40' E 121°13'325013.4
2016-Feb-05 17:20N 32°01' E 120°45'3745.7
2016-Feb-05 16:31N 31°36' E 121°17'6 6.2
2016-Feb-05 15:33N 31°32' E 121°22'7 6.7
2016-Feb-05 14:32N 31°28' E 121°28'6635751.6
2016-Feb-05 14:25N 22°56' E 113°33'667771.1
2016-Feb-05 13:33N 32°00' E 120°49'515779.5
2016-Feb-05 13:33N 31°22' E 121°30'137756.0
2016-Feb-05 13:33N 31°32' E 121°20'1312.5
2016-Feb-05 12:33N 31°21' E 121°27'92296.0
2016-Feb-05 12:32N 31°30' E 121°23'6 6.2
2016-Feb-05 11:33N 31°34' E 121°19'61063.8
2016-Feb-05 11:32N 31°30' E 121°23'6625591.6
2016-Feb-05 11:25N 22°56' E 113°33'6582363.7
2016-Feb-05 11:09N 31°21' E 121°27'51887.6
2016-Feb-05 11:05N 32°00' E 120°49'4279.3
2016-Feb-05 10:33N 31°31' E 121°24'14591.1
2016-Feb-05 10:33N 31°30' E 121°23'9776.1
2016-Feb-05 10:32N 31°21' E 121°27'66434129.0
2016-Feb-05 10:31N 22°55' E 113°26'6702567.8
2016-Feb-05 10:16N 32°01' E 120°43'5577.5
2016-Feb-05 09:33N 31°21' E 121°27'171736.4
2016-Feb-05 09:33N 31°36' E 121°17'46718907.3
2016-Feb-05 09:31N 24°24' E 117°53'4633998.2
2016-Feb-05 09:24N 31°26' E 121°30'48264.7
2016-Feb-05 09:13N 32°00' E 120°49'5176.2
2016-Feb-05 08:33N 31°21' E 121°27'21714.5
2016-Feb-05 08:33N 31°22' E 121°30'456328298.5
2016-Feb-05 08:33N 24°25' E 118°02'2611993.7
2016-Feb-05 08:25N 22°56' E 113°33'6633175.2
2016-Feb-05 08:13N 31°43' E 121°07'471722.0
2016-Feb-05 07:34N 24°20' E 118°07'45710762.8
2016-Feb-05 07:31N 31°21' E 121°27'516305.9
2016-Feb-05 07:30N 32°00' E 120°49'1667.4
2016-Feb-05 07:16N 31°47' E 120°59'3548.0
2016-Feb-05 06:32N 31°21' E 121°27'023.2
2016-Feb-05 06:32N 31°22' E 121°28'6588374.9
2016-Feb-05 06:27N 23°07' E 113°19'661339785.4
2016-Feb-05 06:27N 31°50' E 120°54'6873883.2
2016-Feb-05 06:16N 22°17' E 113°48'681956.0
2016-Feb-05 05:33N 31°21' E 121°27'6584934.3
2016-Feb-05 05:25N 22°56' E 113°33'66210551.2
2016-Feb-05 05:22N 31°26' E 121°29'482688.1
2016-Feb-05 05:20N 32°00' E 120°49'312.7
2016-Feb-05 05:07N 31°58' E 120°51'3 5.7
2016-Feb-05 04:33N 32°00' E 120°48'70069978.9
2016-Feb-05 04:32N 22°12' E 113°42'69338387.6
2016-Feb-05 04:31N 31°30' E 121°22'10807.7
2016-Feb-05 04:30N 31°21' E 121°27'659668.0
2016-Feb-05 03:31N 22°55' E 113°34'6596209.5
2016-Feb-05 03:25N 31°21' E 121°27'1786.0
2016-Feb-05 03:13N 31°36' E 121°17'3960.2
2016-Feb-05 02:33N 30°57' E 121°12'363559.5
2016-Feb-05 02:33N 31°32' E 121°20'13360.2
2016-Feb-05 02:31N 31°21' E 121°27'2626.8
2016-Feb-05 01:33N 30°57' E 121°17'4694.2
2016-Feb-05 01:04N 31°43' E 121°07'1528.8
2016-Feb-05 00:32N 31°32' E 121°20'381607.8
2016-Feb-05 00:30N 32°00' E 120°49'672525.9
2016-Feb-05 00:29N 30°59' E 121°21'67415353.0
2016-Feb-05 00:26N 22°10' E 113°34'677760.7
2016-Feb-04 23:33N 30°60' E 121°25'54575.7
2016-Feb-04 23:27N 31°48' E 120°56'15529.0
2016-Feb-04 23:25N 32°00' E 120°47'7 6.8
2016-Feb-04 22:24N 31°55' E 120°52'62225.1
2016-Feb-04 22:07N 31°01' E 121°29'682677.8
2016-Feb-04 22:06N 32°00' E 120°49'1 1.4
2016-Feb-04 21:33N 32°00' E 120°48'69296.0
2016-Feb-04 21:19N 31°01' E 121°29'68539.0
2016-Feb-04 21:11N 32°00' E 120°49'2 2.4
2016-Feb-04 20:33N 32°01' E 120°47'212.1
2016-Feb-04 20:25N 32°00' E 120°49'68651.8
2016-Feb-04 20:19N 31°01' E 121°29'6881.1
2016-Feb-04 19:28N 32°00' E 120°49'520.6
2016-Feb-04 19:12N 32°01' E 120°43'72108.8
2016-Feb-04 18:33N 31°01' E 121°29'0 0.0
2016-Feb-04 17:23N 31°01' E 121°29'683198.2
2016-Feb-04 17:22N 32°00' E 120°49'4452213.4
2016-Feb-04 17:10N 24°46' E 118°59'425127402.9
2016-Feb-04 17:10N 31°32' E 121°20'3248.0
2016-Feb-04 16:30N 31°01' E 121°29'6857.8
2016-Feb-04 15:19N 32°00' E 120°49'534.8
2016-Feb-04 15:10N 32°01' E 120°43'5 8.1
2016-Feb-04 14:30N 32°00' E 120°49'6722377.5
2016-Feb-04 14:13N 22°51' E 113°34'662984.2
2016-Feb-04 13:32N 31°21' E 121°27'66295397.3
2016-Feb-04 13:32N 22°54' E 113°29'666217973.9
2016-Feb-04 13:32N 31°32' E 121°20'38191.9
2016-Feb-04 13:20N 32°00' E 120°49'5165.9
2016-Feb-04 12:34N 31°21' E 121°27'51116.0
2016-Feb-04 12:07N 32°00' E 120°49'5190.2
2016-Feb-04 11:34N 31°21' E 121°27'6952019.9
2016-Feb-04 11:13N 22°10' E 113°34'695860.8
2016-Feb-04 10:24N 31°21' E 121°27'0 0.0
2016-Feb-04 09:30N 31°21' E 121°27'45997193.3
2016-Feb-04 09:29N 24°17' E 118°10'9 9.3
2016-Feb-04 08:33N 24°10' E 118°15'4647771.5
2016-Feb-04 08:30N 31°21' E 121°27'0 0.0
2016-Feb-04 07:30N 31°21' E 121°27'0 0.0
2016-Feb-04 06:17N 31°21' E 121°27'0 0.0
2016-Feb-04 05:31N 31°21' E 121°27'0 0.0
2016-Feb-04 04:29N 31°21' E 121°27'0 0.0
2016-Feb-04 03:32N 31°21' E 121°27'661612.0
2016-Feb-04 02:27N 23°03' E 113°20'6611782.0
2016-Feb-04 02:05N 31°21' E 121°27'0 0.1
2016-Feb-04 01:32N 31°21' E 121°27'6554746.0
2016-Feb-04 01:23N 23°05' E 113°27'655647.1
2016-Feb-04 00:23N 31°21' E 121°27'0 0.0
2016-Feb-03 23:17N 31°21' E 121°27'0 0.1
2016-Feb-03 22:33N 31°21' E 121°27'3 2.9
2016-Feb-03 21:29N 31°23' E 121°30'3 3.2
2016-Feb-03 20:32N 31°26' E 121°29'34721173.3
2016-Feb-03 20:31N 25°57' E 119°23'1299079.4
2016-Feb-03 20:30N 24°03' E 118°18'8 8.3
2016-Feb-03 19:33N 24°09' E 118°14'13093733.9
2016-Feb-03 19:33N 26°00' E 119°29'3391623.6
2016-Feb-03 19:21N 31°22' E 121°30'  
Track history (hours):
 
Tides and Currents Weather Stations Pressure Air Temp Water Temp Dewpoint Dewpoint Depression Visibility Wind Speed Wind Dir Waves Ship Positions

Callsign 000000 (name unknown)

Last reported at 2016-Feb-13 18:32 UTC. Time now 2016-Feb-13 19:09 UTC.
Position N 31°30' E 121°23'.

Type: Fishing. MMSI: 200007452.

Date/timePositionNaut miles runAvg speedWind from/ knotsBaromVisibWave heightAir tempDewpointWater temp
2016-Feb-13 18:32N 31°30' E 121°23'65981862.0
2016-Feb-13 18:32N 23°06' E 113°25'3207992.8
2016-Feb-13 18:29N 24°53' E 118°55'4313.2
2016-Feb-13 18:29N 24°49' E 118°57'822.4
2016-Feb-13 18:09N 24°49' E 119°06'419708.1
2016-Feb-13 17:33N 31°30' E 121°23'41862734.9
2016-Feb-13 17:33N 24°53' E 118°56'1274.9
2016-Feb-13 17:32N 24°53' E 118°55'32016680.6
2016-Feb-13 17:31N 23°06' E 113°25'6181130119.7
2016-Feb-13 17:28N 49°18' W 123°08'583460876.8
2016-Feb-13 17:23N 24°49' E 118°57'7282.7
2016-Feb-13 17:21N 24°49' E 119°06'58317332.3
2016-Feb-13 16:33N 49°18' W 123°03'58891177763.7
2016-Feb-13 16:33N 22°37' E 120°16'53731161.1
2016-Feb-13 16:32N 31°30' E 121°23'65931236.7
2016-Feb-13 16:31N 23°06' E 113°25'3209083.6
2016-Feb-13 16:29N 24°49' E 118°57'3102.9
2016-Feb-13 16:27N 24°53' E 118°57'111.6
2016-Feb-13 16:20N 24°53' E 118°55'151192.9
2016-Feb-13 15:33N 22°37' E 120°07'53855328.6
2016-Feb-13 15:33N 31°30' E 121°23'418167293.2
2016-Feb-13 15:33N 24°53' E 118°57'111.5
2016-Feb-13 15:26N 24°53' E 118°55'3208922.2
2016-Feb-13 15:24N 23°06' E 113°25'32011892.9
2016-Feb-13 15:23N 24°49' E 118°57'421510.4
2016-Feb-13 14:33N 31°30' E 121°23'41860224.7
2016-Feb-13 14:33N 24°53' E 118°57'1216.0
2016-Feb-13 14:32N 24°53' E 118°55'463.6
2016-Feb-13 14:29N 24°49' E 118°57'3203923.9
2016-Feb-13 14:24N 23°06' E 113°25'659776.8
2016-Feb-13 13:33N 31°30' E 121°23'418188212.2
2016-Feb-13 13:33N 24°53' E 118°56'91338.4
2016-Feb-13 13:32N 24°49' E 119°06'10840.1
2016-Feb-13 13:32N 24°53' E 118°55'482.6
2016-Feb-13 13:29N 24°49' E 118°57'3213530.1
2016-Feb-13 13:23N 23°06' E 113°25'660785.5
2016-Feb-13 12:33N 31°30' E 121°23'419503030.2
2016-Feb-13 12:33N 24°49' E 119°06'94566.7
2016-Feb-13 12:33N 24°53' E 118°57'0 2.1
2016-Feb-13 12:30N 24°52' E 118°57'32114447.5
2016-Feb-13 12:29N 23°06' E 113°25'3213180.0
2016-Feb-13 12:23N 24°49' E 118°57'421506.9
2016-Feb-13 11:33N 31°30' E 121°23'419251532.4
2016-Feb-13 11:33N 24°49' E 119°06'7111.5
2016-Feb-13 11:29N 24°49' E 118°57'461.5
2016-Feb-13 11:25N 24°53' E 118°55'105708.2
2016-Feb-13 11:25N 24°47' E 119°04'3267621.5
2016-Feb-13 11:22N 23°06' E 113°25'660807.1
2016-Feb-13 10:33N 31°30' E 121°23'419137177.1
2016-Feb-13 10:33N 24°51' E 118°57'213.7
2016-Feb-13 10:23N 24°49' E 118°57'32115390.9
2016-Feb-13 10:22N 23°06' E 113°25'629.7
2016-Feb-13 10:09N 23°03' E 113°19'327552.8
2016-Feb-13 09:33N 24°49' E 118°57'324129431.7
2016-Feb-13 09:33N 23°02' E 113°23'415424.3
2016-Feb-13 09:33N 23°06' E 113°25'66064174.0
2016-Feb-13 09:33N 31°30' E 121°23'41915886.9
2016-Feb-13 09:31N 24°51' E 118°57'128.0
2016-Feb-13 09:28N 24°53' E 118°57'8167.1
2016-Feb-13 09:25N 24°50' E 119°05'8637.8
2016-Feb-13 09:25N 24°53' E 118°57'30712269.0
2016-Feb-13 09:23N 22°19' E 114°07'674816.4
2016-Feb-13 08:34N 31°30' E 121°23'659182376.0
2016-Feb-13 08:33N 23°04' E 113°30'317114077.3
2016-Feb-13 08:33N 24°53' E 118°55'32060625.6
2016-Feb-13 08:33N 23°06' E 113°25'32519802.0
2016-Feb-13 08:32N 24°52' E 119°01'3261.7
2016-Feb-13 08:31N 24°51' E 118°57'7444.2
2016-Feb-13 08:30N 24°45' E 118°55'937.3
2016-Feb-13 08:16N 24°47' E 119°04'811.8
2016-Feb-13 07:33N 24°45' E 118°55'81779.0
2016-Feb-13 07:33N 24°47' E 119°04'421758450.1
2016-Feb-13 07:33N 31°30' E 121°23'658395048.0
2016-Feb-13 07:33N 23°04' E 113°30'318104171.7
2016-Feb-13 07:33N 24°51' E 118°58'26330.2
2016-Feb-13 07:33N 24°53' E 118°57'831.5
2016-Feb-13 07:17N 24°49' E 119°05'3277590.9
2016-Feb-13 07:14N 23°06' E 113°25'660971.5
2016-Feb-13 06:33N 31°30' E 121°23'658124752.8
2016-Feb-13 06:33N 23°04' E 113°30'31820800.2
2016-Feb-13 06:32N 24°53' E 118°57'3211542.9
2016-Feb-13 06:20N 23°06' E 113°25'32519528.4
2016-Feb-13 06:19N 24°48' E 119°03'372.7
2016-Feb-13 06:16N 24°50' E 119°01'419587.3
2016-Feb-13 05:33N 31°30' E 121°23'6582370394.3
2016-Feb-13 05:33N 23°04' E 113°30'32114634.4
2016-Feb-13 05:32N 24°50' E 119°01'58824.0
2016-Feb-13 05:32N 24°53' E 118°56'32124072.2
2016-Feb-13 05:31N 23°06' E 113°25'6584842.1
2016-Feb-13 05:23N 31°20' E 121°34'656792.3
2016-Feb-13 04:33N 23°04' E 113°30'32289154.7
2016-Feb-13 04:33N 24°47' E 119°03'42026.4
2016-Feb-13 04:33N 24°50' E 119°00'42079596.3
2016-Feb-13 04:33N 31°30' E 121°23'418100388.1
2016-Feb-13 04:33N 24°53' E 118°56'4118812.0
2016-Feb-13 04:30N 31°20' E 121°34'6587945.6
2016-Feb-13 04:25N 23°06' E 113°25'32898514.9
2016-Feb-13 04:25N 24°49' E 119°06'139.4
2016-Feb-13 04:23N 24°50' E 119°06'6173.2
2016-Feb-13 03:33N 24°20' E 118°07'265106095.8
2016-Feb-13 03:33N 23°04' E 113°30'658790093.7
2016-Feb-13 03:33N 31°30' E 121°23'41935910.0
2016-Feb-13 03:32N 24°49' E 119°07'141256.8
2016-Feb-13 03:32N 24°49' E 118°52'31613695.6
2016-Feb-13 03:30N 23°06' E 113°25'32018880.3
2016-Feb-13 03:29N 24°53' E 118°55'317338.6
2016-Feb-13 02:33N 23°04' E 113°29'659237091.1
2016-Feb-13 02:33N 31°30' E 121°23'41943046.6
2016-Feb-13 02:32N 24°53' E 118°55'6668.7
2016-Feb-13 02:32N 24°49' E 118°50'14445.8
2016-Feb-13 02:30N 24°49' E 119°05'3111131.3
2016-Feb-13 02:13N 22°19' E 114°08'6741013.4
2016-Feb-13 01:33N 31°30' E 121°23'42128094.6
2016-Feb-13 01:33N 24°47' E 119°04'323129094.7
2016-Feb-13 01:32N 23°04' E 113°29'3176957.4
2016-Feb-13 01:30N 24°52' E 118°55'75104.7
2016-Feb-13 01:30N 24°45' E 118°56'71314.2
2016-Feb-13 01:29N 24°53' E 118°55'3203138.2
2016-Feb-13 01:23N 23°06' E 113°25'4 4.7
2016-Feb-13 00:33N 23°04' E 113°29'6582369779.6
2016-Feb-13 00:33N 31°30' E 121°23'41835036.3
2016-Feb-13 00:33N 24°52' E 118°55'0 8.0
2016-Feb-13 00:31N 24°53' E 118°55'10404.2
2016-Feb-13 00:30N 24°49' E 119°05'247.2
2016-Feb-13 00:27N 24°49' E 119°08'4181.5
2016-Feb-13 00:26N 24°47' E 119°04'2332.6
2016-Feb-13 00:25N 24°49' E 119°06'3282301.7
2016-Feb-13 00:17N 23°06' E 113°25'4 5.4
2016-Feb-12 23:33N 23°04' E 113°29'659139515.8
2016-Feb-12 23:33N 31°34' E 121°18'42415741.4
2016-Feb-12 23:32N 24°47' E 119°04'10310.6
2016-Feb-12 23:30N 24°52' E 118°55'5241.9
2016-Feb-12 23:28N 24°48' E 118°57'32082401.3
2016-Feb-12 23:28N 23°06' E 113°25'3276369.2
2016-Feb-12 23:25N 24°48' E 119°05'10203.1
2016-Feb-12 23:22N 24°53' E 118°55'5837162900.4
2016-Feb-12 23:20N 49°18' W 123°02'58357524.2
2016-Feb-12 22:33N 24°47' E 119°04'42796030.5
2016-Feb-12 22:33N 31°37' E 121°16'660339422.7
2016-Feb-12 22:33N 23°04' E 113°29'6184337292.5
2016-Feb-12 22:32N 49°18' W 123°02'5837412042.2
2016-Feb-12 22:31N 24°53' E 118°55'010.4
2016-Feb-12 22:30N 24°52' E 118°55'10289.5
2016-Feb-12 22:28N 24°49' E 119°05'110.0
2016-Feb-12 22:23N 24°49' E 119°05'425513.2
2016-Feb-12 21:33N 31°37' E 121°16'660593989.8
2016-Feb-12 21:33N 23°04' E 113°29'41279.6
2016-Feb-12 21:33N 23°06' E 113°25'3279979.4
2016-Feb-12 21:31N 24°49' E 119°05'10363.6
2016-Feb-12 21:30N 24°52' E 118°55'1085.1
2016-Feb-12 21:23N 24°46' E 119°03'10697.5
2016-Feb-12 21:22N 24°53' E 118°55'5837375251.0
2016-Feb-12 21:21N 49°18' W 123°02'583283646.0
2016-Feb-12 21:17N 24°49' E 119°06'424581.4
2016-Feb-12 20:33N 31°37' E 121°16'4231524465.6
2016-Feb-12 20:33N 24°53' E 118°55'317190294.5
2016-Feb-12 20:33N 23°04' E 113°29'4988.7
2016-Feb-12 20:33N 23°06' E 113°25'32712527.3
2016-Feb-12 20:31N 24°49' E 119°05'374.3
2016-Feb-12 20:29N 24°46' E 119°03'10669.3
2016-Feb-12 20:28N 24°53' E 118°55'1175.2
2016-Feb-12 20:20N 24°49' E 119°06'325423.0
2016-Feb-12 19:33N 23°04' E 113°29'6602375993.8
2016-Feb-12 19:33N 31°37' E 121°16'42395280.4
2016-Feb-12 19:33N 24°53' E 118°55'32022582.5
2016-Feb-12 19:32N 23°06' E 113°25'32016444.3
2016-Feb-12 19:31N 24°53' E 118°55'10266.4
2016-Feb-12 19:29N 24°46' E 119°03'423.7
2016-Feb-12 19:20N 24°49' E 119°06'1823.0
2016-Feb-12 18:33N 24°47' E 118°47'1017670.4
2016-Feb-12 18:33N 24°53' E 118°55'317380591.6
2016-Feb-12 18:33N 23°04' E 113°29'660169716.2
2016-Feb-12 18:33N 31°37' E 121°16'42833464.6
2016-Feb-12 18:32N 24°46' E 119°03'32561550.1
2016-Feb-12 18:32N 23°06' E 113°25'3286828.8
2016-Feb-12 18:29N 24°49' E 119°06'11802.7
2016-Feb-12 18:28N 24°53' E 118°55'1040.2
2016-Feb-12 18:13N 24°49' E 119°05'324488.3
2016-Feb-12 17:33N 23°04' E 113°29'660198003.2
2016-Feb-12 17:33N 31°37' E 121°16'432310690.3
2016-Feb-12 17:33N 24°47' E 118°47'101149.3
2016-Feb-12 17:33N 24°53' E 118°55'101074.7
2016-Feb-12 17:32N 24°46' E 119°03'4319.6
2016-Feb-12 17:31N 24°49' E 119°06'328236279.9
2016-Feb-12 17:31N 23°06' E 113°25'32813877.2
2016-Feb-12 17:30N 24°48' E 119°06'1071.1
2016-Feb-12 17:21N 24°53' E 118°55'10312.8
2016-Feb-12 17:19N 24°49' E 119°05'425553.4
2016-Feb-12 16:33N 31°37' E 121°16'432776736.0
2016-Feb-12 16:33N 24°47' E 118°47'108865.2
2016-Feb-12 16:33N 24°53' E 118°55'317380591.6
2016-Feb-12 16:33N 23°04' E 113°29'31743922.1
2016-Feb-12 16:33N 24°53' E 118°55'10950.9
2016-Feb-12 16:32N 24°46' E 119°03'14045923.8
2016-Feb-12 16:32N 22°36' E 119°60'36519308.9
2016-Feb-12 16:31N 23°06' E 113°25'1667.3
2016-Feb-12 16:16N 22°52' E 113°33'668928.8
2016-Feb-12 15:33N 31°37' E 121°16'545653554.1
2016-Feb-12 15:33N 22°36' E 120°06'151271639.1
2016-Feb-12 15:33N 24°53' E 118°55'317570887.4
2016-Feb-12 15:33N 23°04' E 113°29'31742295.3
2016-Feb-12 15:33N 24°53' E 118°55'10978.0
2016-Feb-12 15:32N 24°46' E 119°03'152231.2
2016-Feb-12 15:32N 24°47' E 118°47'31113314.5
2016-Feb-12 15:30N 23°06' E 113°25'4 4.1
2016-Feb-12 14:33N 23°04' E 113°29'37389604.3
2016-Feb-12 14:33N 22°36' E 120°13'154553504.5
2016-Feb-12 14:33N 24°53' E 118°55'425139151.9
2016-Feb-12 14:33N 31°41' E 121°11'42576527.7
2016-Feb-12 14:33N 24°53' E 118°55'10878.1
2016-Feb-12 14:32N 24°46' E 119°03'3258534.8
2016-Feb-12 14:30N 23°06' E 113°25'31131954.4
2016-Feb-12 14:29N 24°47' E 118°47'308331.6
2016-Feb-12 13:33N 23°04' E 113°29'31723787.6
2016-Feb-12 13:33N 24°53' E 118°55'102891.1
2016-Feb-12 13:32N 24°49' E 119°05'16783.6
2016-Feb-12 13:31N 24°47' E 118°48'3129433.2
2016-Feb-12 13:29N 23°06' E 113°25'6607153.5
2016-Feb-12 13:24N 31°46' E 121°02'4291358.4
2016-Feb-12 13:05N 24°49' E 119°06'713.1
2016-Feb-12 12:33N 24°51' E 118°59'61029.8
2016-Feb-12 12:33N 24°46' E 119°03'725746.3
2016-Feb-12 12:33N 24°49' E 118°56'31663260.1
2016-Feb-12 12:33N 23°04' E 113°29'32410331.5
2016-Feb-12 12:31N 24°48' E 119°05'3278922.5
2016-Feb-12 12:29N 23°06' E 113°25'4 4.2
2016-Feb-12 11:33N 23°04' E 113°29'3245113.2
2016-Feb-12 11:30N 24°49' E 119°05'32713836.5
2016-Feb-12 11:28N 23°06' E 113°25'3257549.9
2016-Feb-12 11:26N 24°46' E 119°03'5108.9
2016-Feb-12 11:23N 24°52' E 119°04'357.1
2016-Feb-12 11:19N 24°49' E 119°06'530.9
2016-Feb-12 11:10N 24°53' E 119°04'325526.1
2016-Feb-12 10:33N 23°04' E 113°29'3201151850.0
2016-Feb-12 10:33N 24°50' E 118°60'52744.6
2016-Feb-12 10:33N 24°46' E 119°04'7330.6
2016-Feb-12 10:31N 24°53' E 119°06'526.4
2016-Feb-12 10:21N 24°49' E 119°05'114.5
2016-Feb-12 10:15N 24°49' E 119°06'1 0.8
2016-Feb-12 09:33N 24°49' E 119°06'32583697.3
2016-Feb-12 09:33N 23°04' E 113°29'32212089.5
2016-Feb-12 09:32N 24°46' E 119°04'4134.4
2016-Feb-12 09:30N 24°50' E 119°02'3293.7
2016-Feb-12 09:29N 24°48' E 119°05'3272416.2
2016-Feb-12 09:21N 23°06' E 113°25'3291818.1
2016-Feb-12 09:10N 24°53' E 119°06'1121324.9
2016-Feb-12 09:05N 23°43' E 117°30'225421.2
2016-Feb-12 08:33N 23°04' E 113°29'4554.0
2016-Feb-12 08:33N 23°06' E 113°25'32628608.7
2016-Feb-12 08:32N 24°46' E 119°04'6134.0
2016-Feb-12 08:29N 24°53' E 119°06'4125.6
2016-Feb-12 08:27N 24°49' E 119°05'132.5
2016-Feb-12 08:26N 24°49' E 119°06'3115.2
2016-Feb-12 08:24N 24°47' E 119°04'323378.0
2016-Feb-12 07:33N 23°04' E 113°29'4213.1
2016-Feb-12 07:32N 23°06' E 113°25'32853682.4
2016-Feb-12 07:32N 24°49' E 119°06'387.6
2016-Feb-12 07:30N 24°46' E 119°05'323338.0
2016-Feb-12 06:33N 23°04' E 113°29'3243209.1
2016-Feb-12 06:27N 24°46' E 119°05'7295.3
2016-Feb-12 06:25N 24°53' E 119°08'5661.5
2016-Feb-12 06:25N 24°49' E 119°06'2 9.2
2016-Feb-12 06:14N 24°48' E 119°05'32723541.3
2016-Feb-12 06:14N 23°06' E 113°25'4 5.7
2016-Feb-12 05:33N 23°04' E 113°29'32211159.9
2016-Feb-12 05:32N 24°46' E 119°03'32548783.7
2016-Feb-12 05:31N 23°06' E 113°25'32614137.2
2016-Feb-12 05:30N 24°51' E 119°03'461.0
2016-Feb-12 05:26N 24°47' E 119°03'432.2
2016-Feb-12 05:18N 24°49' E 119°07'535.0
2016-Feb-12 05:09N 24°48' E 119°01'3 4.8
2016-Feb-12 04:33N 24°47' E 119°03'32226374.5
2016-Feb-12 04:32N 23°04' E 113°29'4141.3
2016-Feb-12 04:31N 23°06' E 113°25'32978956.7
2016-Feb-12 04:30N 24°49' E 119°07'11879.5
2016-Feb-12 04:30N 24°52' E 118°56'1120.3
2016-Feb-12 04:29N 24°53' E 118°55'34242.1
2016-Feb-12 04:21N 24°25' E 118°33'381994.9
2016-Feb-12 04:20N 24°49' E 119°06'0 0.2
2016-Feb-12 03:33N 24°49' E 119°06'325234069.4
2016-Feb-12 03:33N 23°04' E 113°29'31781569.6
2016-Feb-12 03:33N 24°53' E 118°55'0 7.3
2016-Feb-12 03:32N 24°53' E 118°55'10966.0
2016-Feb-12 03:32N 24°52' E 119°06'464.4
2016-Feb-12 03:28N 24°49' E 119°05'3274705.1
2016-Feb-12 03:24N 23°06' E 113°25'3251103.3
2016-Feb-12 03:06N 24°47' E 119°03'2112.8
2016-Feb-12 03:05N 24°47' E 119°05'331617.8
2016-Feb-12 02:33N 23°02' E 113°22'32489620.5
2016-Feb-12 02:33N 24°53' E 118°55'3238.3
2016-Feb-12 02:32N 24°50' E 118°57'7414.7
2016-Feb-12 02:31N 24°46' E 119°04'32182664.7
2016-Feb-12 02:31N 22°56' E 113°33'32512727.8
2016-Feb-12 02:29N 24°49' E 119°07'113696.6
2016-Feb-12 02:29N 24°53' E 118°55'13234.6
2016-Feb-12 02:26N 24°52' E 119°09'3322323.9
2016-Feb-12 02:18N 23°06' E 113°25'320431.3
2016-Feb-12 01:33N 24°53' E 118°55'112154.2
2016-Feb-12 01:33N 24°46' E 119°05'155559.4
2016-Feb-12 01:33N 24°47' E 118°48'30811925.4
2016-Feb-12 01:31N 22°56' E 113°34'325292528.4
2016-Feb-12 01:31N 24°49' E 119°07'32910766.7
2016-Feb-12 01:29N 23°06' E 113°25'32890864.3
2016-Feb-12 01:29N 24°48' E 119°06'11255.7
2016-Feb-12 01:26N 24°53' E 118°55'1140.8
2016-Feb-12 01:11N 24°48' E 119°06'1117.0
2016-Feb-12 00:33N 24°53' E 118°55'11564.2
2016-Feb-12 00:32N 24°49' E 119°07'2200.9
2016-Feb-12 00:31N 24°48' E 119°05'371644.5
2016-Feb-12 00:30N 24°25' E 118°33'383541.0
2016-Feb-12 00:29N 24°48' E 119°07'32825157.0
2016-Feb-12 00:29N 23°06' E 113°25'3278346.3
2016-Feb-12 00:26N 24°47' E 119°05'217.7
2016-Feb-12 00:20N 24°47' E 119°03'43429489.3
2016-Feb-12 00:19N 31°49' E 120°55'14122.2
2016-Feb-12 00:12N 32°00' E 120°45'488.5
2016-Feb-12 00:10N 32°00' E 120°49'441720.1
2016-Feb-11 23:33N 24°49' E 119°07'32060.9
2016-Feb-11 23:33N 24°46' E 119°04'104100.2
2016-Feb-11 23:33N 24°53' E 118°55'1034521.3
2016-Feb-11 23:33N 24°49' E 119°05'105716.9
2016-Feb-11 23:33N 24°53' E 118°55'43847812.9
2016-Feb-11 23:32N 32°00' E 120°45'44211708.9
2016-Feb-11 23:30N 24°47' E 119°04'43415312.6
2016-Feb-11 23:28N 31°49' E 120°55'6593169.8
2016-Feb-11 23:16N 23°06' E 113°25'6643328.1
2016-Feb-11 23:04N 32°00' E 120°49'439862.3
2016-Feb-11 22:33N 24°53' E 118°55'430140758.7
2016-Feb-11 22:33N 31°50' E 120°55'430110627.2
2016-Feb-11 22:33N 24°53' E 118°55'91391.3
2016-Feb-11 22:33N 24°47' E 119°03'3366.1
2016-Feb-11 22:32N 24°49' E 119°06'310116.3
2016-Feb-11 22:32N 24°47' E 119°04'31396.2
2016-Feb-11 22:32N 24°49' E 119°05'3274363.6
2016-Feb-11 22:28N 23°06' E 113°25'66434633.9
2016-Feb-11 22:26N 32°00' E 120°49'467.8
2016-Feb-11 22:23N 32°00' E 120°45'438528.4
2016-Feb-11 21:33N 24°53' E 118°55'32071935.8
2016-Feb-11 21:33N 23°06' E 113°25'320143876.9
2016-Feb-11 21:33N 24°53' E 118°55'43038723.2
2016-Feb-11 21:32N 31°50' E 120°55'142177.6
2016-Feb-11 21:32N 31°60' E 120°44'470.0
2016-Feb-11 21:28N 32°00' E 120°49'44114840.9
2016-Feb-11 21:27N 24°49' E 119°05'4408809.9
2016-Feb-11 21:24N 32°01' E 120°43'44019094.0
2016-Feb-11 21:22N 24°49' E 119°04'624.8
2016-Feb-11 21:07N 24°54' E 119°09'1322.8
2016-Feb-11 20:33N 24°53' E 118°55'32054819.4
2016-Feb-11 20:33N 23°06' E 113°25'327589065.5
2016-Feb-11 20:33N 24°49' E 119°05'44126916.2
2016-Feb-11 20:32N 32°00' E 120°49'4269.4
2016-Feb-11 20:31N 32°00' E 120°45'43875141.5
2016-Feb-11 20:31N 24°53' E 118°55'43029219.1
2016-Feb-11 20:30N 31°50' E 120°55'43219180.3
2016-Feb-11 20:28N 24°49' E 119°04'9 9.7
2016-Feb-11 19:33N 24°53' E 118°55'438143463.5
2016-Feb-11 19:33N 32°00' E 120°45'438121418.2
2016-Feb-11 19:33N 24°53' E 118°55'32021318.4
2016-Feb-11 19:32N 23°06' E 113°25'65918970.6
2016-Feb-11 19:30N 31°50' E 120°55'43255517.0
2016-Feb-11 19:30N 24°49' E 119°05'145.3
2016-Feb-11 19:28N 24°49' E 119°04'4412156.4
2016-Feb-11 19:16N 32°00' E 120°49'441608.7
2016-Feb-11 18:33N 24°49' E 119°05'174326.3
2016-Feb-11 18:32N 24°47' E 118°47'31131066.6
2016-Feb-11 18:32N 23°06' E 113°25'32015558.1
2016-Feb-11 18:31N 24°53' E 118°55'43020373.5
2016-Feb-11 18:29N 31°49' E 120°55'141037.4
2016-Feb-11 18:28N 32°00' E 120°45'4506.4
2016-Feb-11 18:28N 32°00' E 120°49'43926803.6
2016-Feb-11 18:27N 24°53' E 118°55'922.9
2016-Feb-11 18:04N 24°49' E 119°04'431833.8
2016-Feb-11 17:33N 31°49' E 120°55'43840417.1
2016-Feb-11 17:33N 24°47' E 118°47'101697.9
2016-Feb-11 17:32N 24°53' E 118°55'43814342.7
2016-Feb-11 17:30N 32°00' E 120°45'43865740.9
2016-Feb-11 17:30N 24°53' E 118°55'101201.4
2016-Feb-11 17:30N 24°49' E 119°05'144.2
2016-Feb-11 17:28N 24°49' E 119°04'3276320.5
2016-Feb-11 17:25N 23°06' E 113°25'329380.2
2016-Feb-11 16:33N 24°53' E 119°06'193571.0
2016-Feb-11 16:33N 24°47' E 118°47'173200.5
2016-Feb-11 16:33N 24°49' E 119°05'32710911.3
2016-Feb-11 16:31N 23°06' E 113°25'32028090.5
2016-Feb-11 16:30N 24°53' E 118°55'0 4.3
2016-Feb-11 16:29N 24°53' E 118°55'43020919.4
2016-Feb-11 16:28N 31°49' E 120°55'14148.3
2016-Feb-11 16:22N 32°00' E 120°45'440197935.5
2016-Feb-11 16:22N 24°49' E 119°04'4414242.9
2016-Feb-11 16:16N 32°00' E 120°49'443624.1
2016-Feb-11 15:33N 24°48' E 118°59'102673.8
2016-Feb-11 15:33N 24°47' E 118°48'92786.8
2016-Feb-11 15:33N 24°53' E 118°55'101055.2
2016-Feb-11 15:33N 24°49' E 119°05'102888.3
2016-Feb-11 15:32N 24°53' E 118°55'3209215.3
2016-Feb-11 15:30N 23°06' E 113°25'65874061.3
2016-Feb-11 15:30N 31°48' E 120°57'18530.3
2016-Feb-11 15:28N 31°60' E 120°41'363.6
2016-Feb-11 15:25N 31°60' E 120°44'6646446.3
2016-Feb-11 15:19N 22°56' E 113°33'317413.7
2016-Feb-11 14:33N 24°50' E 118°57'440105607.3
2016-Feb-11 14:32N 32°02' E 120°35'43914352.3
2016-Feb-11 14:31N 24°51' E 118°59'6320.7
2016-Feb-11 14:29N 24°49' E 119°05'32310781.9
2016-Feb-11 14:28N 22°56' E 113°33'31631626.9
2016-Feb-11 14:27N 24°53' E 118°55'4391163.7
2016-Feb-11 14:04N 32°00' E 120°49'441853.9
2016-Feb-11 13:33N 24°50' E 118°57'7454.6
2016-Feb-11 13:32N 24°49' E 119°05'44118678.6
2016-Feb-11 13:31N 32°00' E 120°49'66421336.8
2016-Feb-11 13:29N 23°06' E 113°25'32721771.9
2016-Feb-11 13:28N 24°49' E 119°04'32329790.0
2016-Feb-11 13:28N 22°56' E 113°33'6627944.9
2016-Feb-11 13:23N 31°49' E 120°57'19576.2
2016-Feb-11 13:21N 31°60' E 120°39'4342875.3
2016-Feb-11 13:12N 24°53' E 119°03'5 7.8
2016-Feb-11 12:32N 24°49' E 119°05'198.7
2016-Feb-11 12:32N 24°49' E 119°04'4195.7
2016-Feb-11 12:31N 24°53' E 119°02'3269689.7
2016-Feb-11 12:29N 23°06' E 113°25'66324857.0
2016-Feb-11 12:27N 31°58' E 120°51'43453850.0
2016-Feb-11 12:27N 24°54' E 119°07'43617238.3
2016-Feb-11 12:25N 32°00' E 120°49'4413324.9
2016-Feb-11 12:17N 24°49' E 119°04'4329305.1
2016-Feb-11 12:14N 31°49' E 120°57'431632.9
2016-Feb-11 11:33N 24°49' E 119°05'4640.6
2016-Feb-11 11:33N 24°51' E 119°01'44011075.8
2016-Feb-11 11:31N 32°00' E 120°49'66416146.7
2016-Feb-11 11:28N 23°06' E 113°25'121445.1
2016-Feb-11 11:28N 22°56' E 113°33'32389458.5
2016-Feb-11 11:27N 24°50' E 119°04'4311612.8
2016-Feb-11 11:11N 31°49' E 120°57'4339503.7
2016-Feb-11 11:09N 24°47' E 119°04'2 3.8
2016-Feb-11 10:32N 24°50' E 119°05'32320779.2
2016-Feb-11 10:31N 22°56' E 113°33'32121392.9
2016-Feb-11 10:30N 24°51' E 119°01'430386761.7
2016-Feb-11 10:30N 31°49' E 120°57'431119324.5
2016-Feb-11 10:29N 24°50' E 119°04'1766.7
2016-Feb-11 10:29N 24°49' E 119°04'43919291.5
2016-Feb-11 10:28N 31°58' E 120°51'663103752.6
2016-Feb-11 10:28N 23°06' E 113°25'6647091.2
2016-Feb-11 10:22N 32°00' E 120°49'436536.1
2016-Feb-11 09:33N 24°53' E 119°07'3301188665.5
2016-Feb-11 09:33N 23°06' E 113°25'32714337.0
2016-Feb-11 09:32N 24°53' E 119°03'331108192.6
2016-Feb-11 09:32N 23°02' E 113°22'33147607.2
2016-Feb-11 09:31N 24°49' E 119°04'32335209.1
2016-Feb-11 09:31N 22°56' E 113°33'32361134.7
2016-Feb-11 09:30N 24°49' E 119°04'019.0
2016-Feb-11 09:29N 24°49' E 119°04'38514431.8
2016-Feb-11 09:28N 30°57' E 121°12'644415.2
2016-Feb-11 09:27N 31°58' E 120°51'43420542.5
2016-Feb-11 09:26N 24°54' E 119°07'43612347.3
2016-Feb-11 09:24N 32°00' E 120°49'1356.1
2016-Feb-11 09:09N 31°49' E 120°57'43214547.9
2016-Feb-11 09:07N 24°48' E 119°03'389678.9
2016-Feb-11 08:33N 30°58' E 121°18'633227731.8
2016-Feb-11 08:33N 23°05' E 113°28'3631.9
2016-Feb-11 08:33N 23°06' E 113°25'32673323.4
2016-Feb-11 08:32N 24°49' E 119°03'431172359.6
2016-Feb-11 08:32N 31°49' E 120°56'431775726.3
2016-Feb-11 08:32N 24°49' E 119°04'361131.4
2016-Feb-11 08:30N 24°25' E 118°35'408939.4
2016-Feb-11 08:30N 24°53' E 119°06'489.9
2016-Feb-11 08:27N 24°49' E 119°04'1 7.7
2016-Feb-11 08:17N 24°48' E 119°04'346.6
2016-Feb-11 08:13N 24°51' E 119°03'390594.3
2016-Feb-11 07:33N 30°60' E 121°25'392156965.9
2016-Feb-11 07:33N 24°48' E 119°03'32268255.3
2016-Feb-11 07:33N 23°04' E 113°30'32252665.6
2016-Feb-11 07:33N 24°48' E 119°03'32546823.1
2016-Feb-11 07:32N 23°06' E 113°25'32724508.8
2016-Feb-11 07:31N 24°49' E 119°04'32326421.8
2016-Feb-11 07:31N 22°56' E 113°33'66232188.1
2016-Feb-11 07:29N 31°49' E 120°56'43344567.1
2016-Feb-11 07:29N 24°47' E 119°00'329.1
2016-Feb-11 07:22N 24°49' E 119°04'4560.7
2016-Feb-11 07:22N 24°52' E 119°06'40559.2
2016-Feb-11 07:17N 24°25' E 118°34'47045755.6
2016-Feb-11 07:17N 32°00' E 120°49'4404900.8
2016-Feb-11 07:11N 24°50' E 119°06'395626.8
2016-Feb-11 06:34N 31°04' E 121°28'642192634.3
2016-Feb-11 06:33N 23°04' E 113°30'66317419.1
2016-Feb-11 06:31N 32°00' E 120°49'437104838.1
2016-Feb-11 06:31N 24°53' E 119°06'4231.4
2016-Feb-11 06:30N 24°50' E 119°04'189.6
2016-Feb-11 06:29N 24°49' E 119°04'2720.2
2016-Feb-11 06:29N 24°48' E 119°01'34771.6
2016-Feb-11 06:26N 24°25' E 118°34'36513.4
2016-Feb-11 06:22N 24°49' E 119°04'4316208.5
2016-Feb-11 06:18N 31°48' E 120°56'43359902.2
2016-Feb-11 06:17N 24°48' E 119°03'322437.4
2016-Feb-11 05:33N 23°04' E 113°30'32341555.3
2016-Feb-11 05:33N 24°50' E 119°04'3118.7
2016-Feb-11 05:31N 24°53' E 119°06'329394611.2
2016-Feb-11 05:31N 23°06' E 113°25'121398.4
2016-Feb-11 05:31N 22°56' E 113°33'32211603.3
2016-Feb-11 05:29N 24°49' E 119°04'3611895.3
2016-Feb-11 05:29N 24°25' E 118°34'4358556.2
2016-Feb-11 05:26N 31°11' E 121°28'4046956.3
2016-Feb-11 05:22N 24°49' E 119°02'240.0
2016-Feb-11 05:19N 24°49' E 119°04'431172371.8
2016-Feb-11 05:19N 31°48' E 120°57'23183.4
2016-Feb-11 05:11N 31°35' E 121°19'421673.7
2016-Feb-11 04:33N 24°51' E 119°01'36092.0
2016-Feb-11 04:33N 24°49' E 119°04'323129386.3
2016-Feb-11 04:33N 23°04' E 113°30'32329095.1
2016-Feb-11 04:33N 24°49' E 119°04'36487.1
2016-Feb-11 04:28N 24°25' E 118°35'2944816.5
2016-Feb-11 04:25N 23°06' E 113°25'654130767.7
2016-Feb-11 04:24N 31°15' E 121°32'40921013.6
2016-Feb-11 04:23N 24°48' E 119°05'228.2
2016-Feb-11 04:20N 24°49' E 119°04'4313333.5
2016-Feb-11 04:12N 31°48' E 120°57'46123371.7
2016-Feb-11 04:11N 24°25' E 118°35'35688.5
2016-Feb-11 04:08N 24°50' E 119°02'0 0.6
2016-Feb-11 03:33N 24°50' E 119°02'3211157040.1
2016-Feb-11 03:33N 23°04' E 113°30'313376072.4
2016-Feb-11 03:33N 24°49' E 118°53'41618254.5
2016-Feb-11 03:32N 31°20' E 121°33'412741327.4
2016-Feb-11 03:31N 24°49' E 119°05'33342872.5
2016-Feb-11 03:31N 23°06' E 113°18'7474.6
2016-Feb-11 03:30N 23°06' E 113°25'2957929.2
2016-Feb-11 03:28N 24°24' E 118°36'361340.1
2016-Feb-11 03:26N 24°50' E 119°04'377398.3
2016-Feb-11 03:26N 24°25' E 118°34'35415.9
2016-Feb-11 03:21N 24°48' E 119°03'43215862.8
2016-Feb-11 03:19N 31°48' E 120°57'66210977.1
2016-Feb-11 03:16N 22°56' E 113°33'3234538.0
2016-Feb-11 03:11N 24°49' E 119°04'323509.1
2016-Feb-11 02:33N 23°04' E 113°30'65651373.1
2016-Feb-11 02:33N 31°23' E 121°30'41445134.0
2016-Feb-11 02:32N 24°51' E 118°58'413743316.4
2016-Feb-11 02:32N 31°22' E 121°30'3910050.3
2016-Feb-11 02:32N 31°48' E 120°57'43191333.1
2016-Feb-11 02:31N 24°49' E 119°03'32510949.9
2016-Feb-11 02:30N 23°06' E 113°25'32798127.1
2016-Feb-11 02:29N 24°49' E 119°05'171995.5
2016-Feb-11 02:29N 24°47' E 118°47'165622.7
2016-Feb-11 02:29N 24°50' E 119°03'3236488.9
2016-Feb-11 02:26N 22°56' E 113°33'66839414.4
2016-Feb-11 02:25N 32°00' E 120°49'43910530.4
2016-Feb-11 02:22N 24°51' E 119°05'411505.5
2016-Feb-11 01:34N 31°21' E 121°30'656181631.8
2016-Feb-11 01:33N 23°04' E 113°30'65860779.1
2016-Feb-11 01:33N 31°24' E 121°31'448179107.2
2016-Feb-11 01:32N 24°25' E 118°33'372913.6
2016-Feb-11 01:32N 24°50' E 119°04'82255.8
2016-Feb-11 01:32N 24°53' E 118°55'9241.5
2016-Feb-11 01:29N 24°50' E 119°05'1760355.5
2016-Feb-11 01:29N 24°47' E 118°47'311124245.7
2016-Feb-11 01:29N 23°06' E 113°25'32690301.4
2016-Feb-11 01:29N 24°49' E 119°04'44135301.2
2016-Feb-11 01:28N 32°00' E 120°49'13950.9
2016-Feb-11 01:27N 31°48' E 120°57'431479.0
2016-Feb-11 00:33N 24°49' E 119°05'124148.7
2016-Feb-11 00:33N 24°50' E 118°52'1112939.4
2016-Feb-11 00:33N 24°50' E 119°04'32497205.6
2016-Feb-11 00:33N 23°04' E 113°29'29061409.8
2016-Feb-11 00:33N 24°25' E 118°33'45057910.1
2016-Feb-11 00:32N 31°29' E 121°24'41837614.6
2016-Feb-11 00:32N 24°53' E 118°55'93896.8
2016-Feb-11 00:31N 24°48' E 119°03'228.3
2016-Feb-11 00:28N 24°49' E 119°04'1270.2
2016-Feb-11 00:28N 24°48' E 119°05'43130450.6
2016-Feb-11 00:27N 31°48' E 120°57'4615092.9
2016-Feb-11 00:21N 24°24' E 118°35'2943580.0
2016-Feb-11 00:16N 23°06' E 113°25'6643132.2
2016-Feb-11 00:04N 32°00' E 120°49'442866.7
2016-Feb-10 23:33N 24°48' E 119°05'32512.3
2016-Feb-10 23:33N 24°52' E 119°05'21343.3
2016-Feb-10 23:33N 24°50' E 119°04'9358.7
2016-Feb-10 23:32N 24°53' E 118°55'421505374.1
2016-Feb-10 23:31N 31°35' E 121°18'65926065.4
2016-Feb-10 23:30N 23°04' E 113°29'29140293.8
2016-Feb-10 23:30N 24°25' E 118°34'362805.3
2016-Feb-10 23:29N 24°49' E 119°04'2191.6
2016-Feb-10 23:28N 24°49' E 119°07'3280.0
2016-Feb-10 23:27N 24°48' E 119°04'3263665.5
2016-Feb-10 23:22N 23°06' E 113°25'328402.3
2016-Feb-10 22:33N 24°52' E 119°05'31936.9
2016-Feb-10 22:33N 24°49' E 119°03'078.6
2016-Feb-10 22:33N 24°49' E 119°03'1528.6
2016-Feb-10 22:33N 24°48' E 119°04'1147.5
2016-Feb-10 22:32N 24°49' E 119°05'10920.9
2016-Feb-10 22:32N 24°53' E 118°55'9730.6
2016-Feb-10 22:31N 24°48' E 119°03'32236262.9
2016-Feb-10 22:30N 23°04' E 113°29'3228532.8
2016-Feb-10 22:28N 24°48' E 119°03'442.0
2016-Feb-10 22:23N 24°50' E 119°06'425382231.1
2016-Feb-10 22:23N 31°40' E 121°11'4253020.9
2016-Feb-10 22:14N 24°51' E 119°06'6890.0
2016-Feb-10 22:14N 24°47' E 119°01'3231872.8
2016-Feb-10 22:03N 23°06' E 113°25'325646.0
2016-Feb-10 21:33N 24°48' E 119°03'325390044.6
2016-Feb-10 21:33N 23°06' E 113°25'4294.3
2016-Feb-10 21:32N 23°04' E 113°29'31724819.4
2016-Feb-10 21:32N 24°53' E 118°55'42715209.1
2016-Feb-10 21:30N 31°43' E 121°06'42937655.6
2016-Feb-10 21:29N 24°49' E 119°03'2169.1
2016-Feb-10 21:28N 24°47' E 119°02'3655.6
2016-Feb-10 21:28N 24°49' E 119°05'4413035.3
2016-Feb-10 21:19N 32°00' E 120°49'4405403.3
2016-Feb-10 21:15N 24°50' E 119°06'235.5
2016-Feb-10 21:12N 24°49' E 119°04'117.2
2016-Feb-10 21:09N 24°50' E 119°05'324538.3
2016-Feb-10 20:33N 23°04' E 113°29'32329074.2
2016-Feb-10 20:33N 24°49' E 119°04'326586685.5
2016-Feb-10 20:33N 23°06' E 113°25'32851284.3
2016-Feb-10 20:32N 24°50' E 119°05'9808.0
2016-Feb-10 20:32N 24°53' E 118°55'985.9
2016-Feb-10 20:25N 24°50' E 119°05'4401728.4
2016-Feb-10 20:10N 32°00' E 120°49'6631089.1
2016-Feb-10 19:33N 23°04' E 113°29'31639188.4
2016-Feb-10 19:33N 24°50' E 118°55'8100.9
2016-Feb-10 19:28N 24°49' E 119°04'3262434.4
2016-Feb-10 19:20N 23°06' E 113°25'4 5.2
2016-Feb-10 18:33N 23°04' E 113°29'4140.3
2016-Feb-10 18:32N 23°06' E 113°25'6648850.5
2016-Feb-10 18:27N 32°00' E 120°49'4919934.5
2016-Feb-10 18:24N 24°09' E 118°12'655555.8
2016-Feb-10 18:23N 24°50' E 119°07'6273.6
2016-Feb-10 17:33N 24°17' E 118°10'26748078.6
2016-Feb-10 17:33N 23°04' E 113°29'4155.7
2016-Feb-10 17:31N 23°06' E 113°25'66428114.5
2016-Feb-10 17:30N 32°00' E 120°49'67123693.5
2016-Feb-10 17:28N 22°52' E 113°33'66920747.4
2016-Feb-10 17:26N 32°01' E 120°43'2480.7
2016-Feb-10 17:08N 31°45' E 121°04'6591136.9
2016-Feb-10 16:33N 23°04' E 113°29'31537777.3
2016-Feb-10 16:33N 24°44' E 118°56'31610326.2
2016-Feb-10 16:31N 22°52' E 113°33'163059.0
2016-Feb-10 16:31N 23°06' E 113°25'31714434.2
2016-Feb-10 16:29N 24°45' E 118°54'4368052.2
2016-Feb-10 16:26N 31°47' E 120°60'433494.1
2016-Feb-10 15:34N 24°48' E 118°57'31781435.0
2016-Feb-10 15:33N 23°04' E 113°29'65891068.3
2016-Feb-10 15:33N 31°50' E 120°54'65814453.6
2016-Feb-10 15:30N 23°06' E 113°25'6642421.2
2016-Feb-10 15:14N 32°00' E 120°49'6714152.5
2016-Feb-10 15:04N 22°52' E 113°33'1325.4
2016-Feb-10 14:33N 23°04' E 113°29'32418831.8
2016-Feb-10 14:32N 24°54' E 119°03'43592091.9
2016-Feb-10 14:32N 31°58' E 120°51'67010921.6
2016-Feb-10 14:28N 22°52' E 113°33'1693.0
2016-Feb-10 14:18N 23°06' E 113°25'4 5.5
2016-Feb-10 13:33N 23°04' E 113°29'65819899.1
2016-Feb-10 13:31N 31°48' E 120°57'14229.0
2016-Feb-10 13:28N 32°00' E 120°49'6648504.4
2016-Feb-10 13:23N 23°06' E 113°25'6613370.2
2016-Feb-10 13:11N 32°01' E 120°43'660958.1
2016-Feb-10 12:30N 23°04' E 113°29'65616291.5
2016-Feb-10 12:28N 31°21' E 121°30'3823087.2
2016-Feb-10 12:27N 31°47' E 120°57'47126105.8
2016-Feb-10 12:26N 24°19' E 118°11'2714248.4
2016-Feb-10 12:23N 23°06' E 113°25'3221403.3
2016-Feb-10 12:09N 24°46' E 118°60'3 5.3
2016-Feb-10 11:33N 24°49' E 119°02'322105230.5
2016-Feb-10 11:33N 23°04' E 113°29'656787421.5
2016-Feb-10 11:33N 31°21' E 121°30'449287.0
2016-Feb-10 11:32N 31°52' E 120°53'66715099.3
2016-Feb-10 11:30N 22°51' E 113°33'1671.7
2016-Feb-10 11:16N 23°06' E 113°25'358485.5
2016-Feb-10 10:32N 25°17' E 119°30'40722524.5
2016-Feb-10 10:31N 31°57' E 120°51'66252957.9
2016-Feb-10 10:30N 23°04' E 113°29'65627791.3
2016-Feb-10 10:29N 31°21' E 121°30'4126371.2
2016-Feb-10 10:25N 24°50' E 119°02'39274.8
2016-Feb-10 10:16N 25°18' E 119°32'378527.2
2016-Feb-10 09:33N 31°20' E 121°33'658263107.1
2016-Feb-10 09:33N 23°06' E 113°25'66350774.1
2016-Feb-10 09:32N 31°59' E 120°49'44210266.4
2016-Feb-10 09:30N 24°47' E 119°01'4167915.4
2016-Feb-10 09:27N 31°21' E 121°30'656739.1
2016-Feb-10 08:33N 23°04' E 113°29'32129658.6
2016-Feb-10 08:33N 24°50' E 119°01'324233407.3
2016-Feb-10 08:33N 23°06' E 113°25'65976543.5
2016-Feb-10 08:32N 31°24' E 121°31'503915.4
2016-Feb-10 08:31N 31°59' E 120°49'51821.1
2016-Feb-10 08:28N 31°21' E 121°30'521716.1
2016-Feb-10 08:26N 32°00' E 120°49'101592.8
2016-Feb-10 08:25N 32°00' E 120°37'478548.8
2016-Feb-10 07:33N 24°24' E 117°57'26015893.9
2016-Feb-10 07:32N 23°06' E 113°25'660339266.3
2016-Feb-10 07:32N 31°28' E 121°27'6592371485.8
2016-Feb-10 07:32N 23°04' E 113°29'3208793.2
2016-Feb-10 07:30N 24°48' E 119°00'41619683.5
2016-Feb-10 07:29N 31°21' E 121°30'52916.5
2016-Feb-10 07:25N 32°00' E 120°49'1210.9
2016-Feb-10 07:25N 31°59' E 120°49'6702109.9
2016-Feb-10 07:06N 22°51' E 113°33'6701235.9
2016-Feb-10 06:33N 31°59' E 120°49'662340569.7
2016-Feb-10 06:33N 23°04' E 113°29'6565284.8
2016-Feb-10 06:26N 31°21' E 121°30'6576499.5
2016-Feb-10 06:19N 23°06' E 113°25'4 5.2
2016-Feb-10 05:33N 23°04' E 113°29'6562218.1
2016-Feb-10 05:16N 31°21' E 121°30'511632.9
2016-Feb-10 05:14N 31°59' E 120°49'66353027.6
2016-Feb-10 05:13N 23°06' E 113°25'16108.1
2016-Feb-10 05:04N 22°52' E 113°33'6701313.7
2016-Feb-10 04:33N 31°59' E 120°49'66256760.5
2016-Feb-10 04:33N 23°04' E 113°29'65849350.9
2016-Feb-10 04:32N 31°29' E 121°24'91737.6
2016-Feb-10 04:32N 31°21' E 121°30'66470254.7
2016-Feb-10 04:31N 22°52' E 113°33'16150.5
2016-Feb-10 04:25N 23°06' E 113°25'3263600.1
2016-Feb-10 04:19N 24°51' E 119°03'323423.5
2016-Feb-10 03:33N 23°04' E 113°29'658131602.3
2016-Feb-10 03:33N 31°29' E 121°24'4317358.5
2016-Feb-10 03:33N 32°00' E 120°49'44310349.1
2016-Feb-10 03:30N 24°48' E 118°59'32282853.1
2016-Feb-10 03:30N 23°06' E 113°25'66351877.7
2016-Feb-10 03:29N 31°59' E 120°49'514192.2
2016-Feb-10 03:29N 31°21' E 121°30'66466353.9
2016-Feb-10 03:28N 22°52' E 113°33'666734.0
2016-Feb-10 02:34N 31°29' E 121°24'658182341.9
2016-Feb-10 02:33N 23°04' E 113°29'31760087.0
2016-Feb-10 02:33N 24°53' E 118°55'43823186.4
2016-Feb-10 02:32N 31°59' E 120°49'51297.3
2016-Feb-10 02:22N 31°21' E 121°30'66415510.9
2016-Feb-10 02:19N 22°52' E 113°33'16625.4
2016-Feb-10 02:17N 23°06' E 113°25'6633720.1
2016-Feb-10 02:07N 31°58' E 120°51'3970.4
2016-Feb-10 01:33N 31°30' E 121°23'658112862.1
2016-Feb-10 01:33N 23°04' E 113°29'66216907.5
2016-Feb-10 01:31N 31°59' E 120°49'2 8.4
2016-Feb-10 01:19N 31°58' E 120°51'43858369.0
2016-Feb-10 01:18N 24°53' E 118°55'32014955.3
2016-Feb-10 01:17N 23°06' E 113°25'6573622.7
2016-Feb-10 01:06N 31°21' E 121°30'6561203.4
2016-Feb-10 00:33N 23°04' E 113°29'317163079.3
2016-Feb-10 00:33N 24°53' E 118°55'4189967.6
2016-Feb-10 00:31N 31°30' E 121°22'65918388.8
2016-Feb-10 00:29N 23°06' E 113°25'66321893.6
2016-Feb-10 00:27N 31°59' E 120°49'217.1
2016-Feb-10 00:20N 31°60' E 120°47'4199.9
2016-Feb-10 00:19N 32°01' E 120°43'439578.9
2016-Feb-09 23:33N 24°53' E 118°55'3174878.4
2016-Feb-09 23:29N 23°04' E 113°29'4191.1
2016-Feb-09 23:28N 23°06' E 113°25'16547.8
2016-Feb-09 23:26N 22°51' E 113°34'67015773.9
2016-Feb-09 23:24N 31°59' E 120°49'1 4.5
2016-Feb-09 23:04N 32°00' E 120°49'6711266.8
2016-Feb-09 22:33N 22°51' E 113°33'132077.1
2016-Feb-09 22:32N 23°04' E 113°29'31812189.2
2016-Feb-09 22:31N 24°52' E 118°57'439105243.0
2016-Feb-09 22:30N 31°58' E 120°51'66313417.5
2016-Feb-09 22:27N 23°06' E 113°25'66362800.2
2016-Feb-09 22:27N 31°59' E 120°49'662741.5
2016-Feb-09 21:33N 23°04' E 113°29'41322.1
2016-Feb-09 21:33N 23°06' E 113°25'66462887.8
2016-Feb-09 21:32N 32°00' E 120°49'1103.7
2016-Feb-09 21:32N 31°59' E 120°49'67019783.9
2016-Feb-09 21:30N 22°51' E 113°33'1314.1
2016-Feb-09 20:33N 23°04' E 113°29'131165.2
2016-Feb-09 20:33N 22°51' E 113°33'1658675.0
2016-Feb-09 20:33N 23°06' E 113°25'66322726.4
2016-Feb-09 20:31N 31°59' E 120°49'662690.2
2016-Feb-09 19:33N 23°04' E 113°29'4210.2
2016-Feb-09 19:32N 23°06' E 113°25'66313955.6
2016-Feb-09 19:29N 31°59' E 120°49'152.1
2016-Feb-09 19:28N 32°00' E 120°49'663731.2
2016-Feb-09 18:33N 23°04' E 113°29'4145.1
2016-Feb-09 18:32N 23°06' E 113°25'6636817.8
2016-Feb-09 18:26N 31°59' E 120°49'1 4.1
2016-Feb-09 18:06N 32°00' E 120°49'6631235.1
2016-Feb-09 17:33N 23°04' E 113°29'131168.7
2016-Feb-09 17:33N 22°51' E 113°33'67035495.3
2016-Feb-09 17:31N 31°59' E 120°49'6636182.4
2016-Feb-09 17:25N 23°06' E 113°25'6649156.1
2016-Feb-09 17:21N 32°00' E 120°49'663839.1
2016-Feb-09 16:33N 23°04' E 113°29'66321688.4
2016-Feb-09 16:31N 31°60' E 120°49'66345925.5
2016-Feb-09 16:31N 23°06' E 113°25'65738783.9
2016-Feb-09 16:30N 31°21' E 121°30'53340.0
2016-Feb-09 16:20N 32°00' E 120°49'663846.6
2016-Feb-09 15:33N 23°04' E 113°29'663397891.0
2016-Feb-09 15:33N 32°00' E 120°49'531871.7
2016-Feb-09 15:32N 31°21' E 121°30'65728164.5
2016-Feb-09 15:30N 23°06' E 113°25'6571616.1
2016-Feb-09 15:06N 32°00' E 120°37'6571214.7
2016-Feb-09 14:33N 23°04' E 113°29'65631082.1
2016-Feb-09 14:32N 31°21' E 121°30'66437322.7
2016-Feb-09 14:31N 22°52' E 113°33'1313.4
2016-Feb-09 13:32N 23°04' E 113°29'1360.6
2016-Feb-09 13:19N 22°52' E 113°33'16496.8
2016-Feb-09 13:17N 23°06' E 113°25'6645583.5
2016-Feb-09 13:10N 32°00' E 120°49'521409.1
2016-Feb-09 13:08N 31°21' E 121°30'6561135.7
2016-Feb-09 12:33N 23°04' E 113°29'65690854.5
2016-Feb-09 12:33N 31°21' E 121°30'6573942.9
2016-Feb-09 12:23N 23°06' E 113°25'6634139.5
2016-Feb-09 12:13N 31°58' E 120°51'5076.0
2016-Feb-09 11:34N 31°21' E 121°30'111824.2
2016-Feb-09 11:33N 31°30' E 121°22'6597802.0
2016-Feb-09 11:28N 23°06' E 113°25'4501.5
2016-Feb-09 11:28N 23°04' E 113°29'66314460.7
2016-Feb-09 11:25N 31°58' E 120°51'315.3
2016-Feb-09 11:15N 32°00' E 120°49'663948.1
2016-Feb-09 10:33N 23°04' E 113°29'6632822.0
2016-Feb-09 10:19N 32°00' E 120°49'66411714.3
2016-Feb-09 10:15N 23°06' E 113°25'65713440.4
2016-Feb-09 10:13N 31°21' E 121°30'657999.8
2016-Feb-09 09:33N 23°06' E 113°25'41472.3
2016-Feb-09 09:33N 23°04' E 113°29'65627791.0
2016-Feb-09 09:32N 31°21' E 121°30'11405.5
2016-Feb-09 09:30N 31°31' E 121°23'41134.4
2016-Feb-09 09:11N 32°00' E 120°49'6641023.5
2016-Feb-09 08:33N 23°06' E 113°25'65998920.8
2016-Feb-09 08:32N 31°31' E 121°23'65917960.6
2016-Feb-09 08:30N 23°04' E 113°29'6564696.3
2016-Feb-09 08:22N 31°21' E 121°30'52693.7
2016-Feb-09 08:17N 32°00' E 120°49'663902.6
2016-Feb-09 07:33N 23°04' E 113°29'65971841.0
2016-Feb-09 07:32N 31°31' E 121°23'65998921.5
2016-Feb-09 07:32N 23°06' E 113°25'663265387.9
2016-Feb-09 07:32N 31°58' E 120°51'502218.1
2016-Feb-09 07:31N 31°21' E 121°30'522949.7
2016-Feb-09 07:29N 32°00' E 120°49'4143.3
2016-Feb-09 06:33N 31°31' E 121°23'65944732.2
2016-Feb-09 06:32N 23°04' E 113°29'42413.1
2016-Feb-09 06:32N 23°06' E 113°25'664132769.5
2016-Feb-09 06:31N 32°00' E 120°49'52248.6
2016-Feb-09 06:19N 31°21' E 121°30'6643995.0
2016-Feb-09 06:09N 22°51' E 113°33'6661138.2
2016-Feb-09 05:33N 31°31' E 121°23'65946487.1
2016-Feb-09 05:33N 23°04' E 113°29'6565545.2
2016-Feb-09 05:26N 31°21' E 121°30'65725715.6
2016-Feb-09 05:24N 23°06' E 113°25'6572041.3
2016-Feb-09 05:05N 31°21' E 121°30'6561253.9
2016-Feb-09 04:33N 23°04' E 113°29'6592370840.7
2016-Feb-09 04:33N 31°31' E 121°23'1096.5
2016-Feb-09 04:27N 31°24' E 121°31'3256.4
2016-Feb-09 04:27N 31°21' E 121°30'9 9.8
2016-Feb-09 03:33N 31°29' E 121°25'659593029.4
2016-Feb-09 03:33N 23°04' E 113°29'458.2
2016-Feb-09 03:29N 23°06' E 113°25'4 4.5
2016-Feb-09 02:33N 23°04' E 113°29'65818662.9
2016-Feb-09 02:31N 31°24' E 121°31'65917200.8
2016-Feb-09 02:29N 23°06' E 113°25'65719392.5
2016-Feb-09 02:27N 31°21' E 121°30'656739.6
2016-Feb-09 01:33N 23°04' E 113°29'422.3
2016-Feb-09 01:22N 23°06' E 113°25'6594844.3
2016-Feb-09 01:14N 31°24' E 121°31'658968.2
2016-Feb-09 00:33N 23°04' E 113°29'446.4
2016-Feb-09 00:28N 23°06' E 113°25'1646.8
2016-Feb-09 00:06N 22°51' E 113°34'1323.7
2016-Feb-08 23:33N 23°04' E 113°29'421.1
2016-Feb-08 23:21N 23°06' E 113°25'0 0.0
2016-Feb-08 22:33N 23°06' E 113°25'440.2
2016-Feb-08 22:26N 23°04' E 113°29'0 0.0
2016-Feb-08 21:33N 23°04' E 113°29'0 0.0
2016-Feb-08 20:32N 23°04' E 113°29'437.3
2016-Feb-08 20:25N 23°06' E 113°25'4 4.8
2016-Feb-08 19:33N 23°04' E 113°29'431.8
2016-Feb-08 19:25N 23°06' E 113°25'4 4.8
2016-Feb-08 18:32N 23°04' E 113°29'4 9.7
2016-Feb-08 18:06N 23°06' E 113°25'4 7.7
2016-Feb-08 17:34N 23°04' E 113°29'474.2
2016-Feb-08 17:30N 23°06' E 113°25'16326.6
2016-Feb-08 17:27N 22°51' E 113°33'1314.8
2016-Feb-08 16:33N 23°04' E 113°29'4 8.9
2016-Feb-08 16:05N 23°06' E 113°25'4 7.6
2016-Feb-08 15:32N 23°04' E 113°29'0 0.0
2016-Feb-08 14:33N 23°04' E 113°29'450.7
2016-Feb-08 14:29N 23°06' E 113°25'4 4.5
2016-Feb-08 13:33N 23°04' E 113°29'422.5
2016-Feb-08 13:22N 23°06' E 113°25'12755.5
2016-Feb-08 13:21N 22°56' E 113°33'549.9
2016-Feb-08 13:15N 22°52' E 113°33'1318.7
2016-Feb-08 12:33N 23°04' E 113°29'6565113.2
2016-Feb-08 12:25N 31°21' E 121°30'65710241.9
2016-Feb-08 12:22N 23°06' E 113°25'16277.1
2016-Feb-08 12:18N 22°52' E 113°33'1317.6
2016-Feb-08 11:33N 23°04' E 113°29'4723.5
2016-Feb-08 11:33N 23°06' E 113°25'65710953.1
2016-Feb-08 11:30N 31°21' E 121°30'657693.2
2016-Feb-08 10:33N 23°06' E 113°25'659790752.8
2016-Feb-08 10:33N 31°30' E 121°22'65821934.4
2016-Feb-08 10:31N 23°04' E 113°29'6564241.1
2016-Feb-08 10:22N 31°21' E 121°30'656814.0
2016-Feb-08 09:33N 23°04' E 113°29'6564569.2
2016-Feb-08 09:25N 31°21' E 121°30'66426843.7
2016-Feb-08 09:23N 22°51' E 113°33'16330.7
2016-Feb-08 09:20N 23°06' E 113°25'4 5.4
2016-Feb-08 08:33N 23°04' E 113°29'432.3
2016-Feb-08 08:26N 23°06' E 113°25'6578510.3
2016-Feb-08 08:21N 31°21' E 121°30'656828.9
2016-Feb-08 07:34N 23°04' E 113°29'417.5
2016-Feb-08 07:19N 23°06' E 113°25'6554581.4
2016-Feb-08 07:11N 31°21' E 121°27'6541062.2
2016-Feb-08 06:34N 23°04' E 113°29'485.9
2016-Feb-08 06:31N 23°06' E 113°25'65534697.5
2016-Feb-08 06:30N 31°21' E 121°27'654701.8
2016-Feb-08 05:34N 23°04' E 113°29'65419310.7
2016-Feb-08 05:32N 31°21' E 121°27'4585803.9
2016-Feb-08 05:27N 24°24' E 117°55'2595830.6
2016-Feb-08 05:24N 23°06' E 113°25'4 4.8
2016-Feb-08 04:34N 23°04' E 113°29'462.9
2016-Feb-08 04:30N 23°06' E 113°25'6559475.2
2016-Feb-08 04:26N 31°21' E 121°27'654750.5
2016-Feb-08 03:33N 23°04' E 113°29'65410660.3
2016-Feb-08 03:30N 31°21' E 121°27'6552127.4
2016-Feb-08 03:11N 23°06' E 113°25'4 6.3
2016-Feb-08 02:33N 23°04' E 113°29'6542941.2
2016-Feb-08 02:20N 31°21' E 121°27'65513107.4
2016-Feb-08 02:17N 23°06' E 113°25'4 5.6
2016-Feb-08 01:33N 23°04' E 113°29'2893976.1
2016-Feb-08 01:29N 24°26' E 118°32'2922726.5
2016-Feb-08 01:22N 23°06' E 113°25'4 5.1
2016-Feb-08 00:34N 23°04' E 113°29'441.8
2016-Feb-08 00:28N 23°06' E 113°25'2921142.4
2016-Feb-08 00:12N 24°25' E 118°33'289440.1
2016-Feb-07 23:33N 23°04' E 113°29'0 0.0
2016-Feb-07 22:33N 23°04' E 113°29'441.7
2016-Feb-07 22:27N 23°06' E 113°25'29319875.1
2016-Feb-07 22:26N 24°26' E 118°33'290328.6
2016-Feb-07 21:33N 23°04' E 113°29'419.3
2016-Feb-07 21:20N 23°06' E 113°25'4 5.2
2016-Feb-07 20:33N 23°04' E 113°29'4216.9
2016-Feb-07 20:32N 23°06' E 113°25'4 4.2
2016-Feb-07 19:34N 23°04' E 113°29'4103.9
2016-Feb-07 19:31N 23°06' E 113°25'4 4.2
2016-Feb-07 18:33N 23°04' E 113°29'498.3
2016-Feb-07 18:31N 23°06' E 113°25'16212.4
2016-Feb-07 18:26N 22°51' E 113°33'1315.2
2016-Feb-07 17:34N 23°04' E 113°29'474.9
2016-Feb-07 17:30N 23°06' E 113°25'4 4.3
2016-Feb-07 16:34N 23°04' E 113°29'1250.8
2016-Feb-07 16:19N 23°07' E 113°16'938.2
2016-Feb-07 16:05N 23°06' E 113°25'4 7.3
2016-Feb-07 15:32N 23°04' E 113°29'1148.9
2016-Feb-07 15:19N 23°06' E 113°18'65910187.3
2016-Feb-07 15:15N 31°21' E 121°27'654939.4
2016-Feb-07 14:33N 23°04' E 113°29'11280.9
2016-Feb-07 14:31N 23°06' E 113°18'65928597.6
2016-Feb-07 14:30N 31°21' E 121°27'65549152.7
2016-Feb-07 14:29N 23°06' E 113°25'4 4.4
2016-Feb-07 13:34N 23°04' E 113°29'11203.4
2016-Feb-07 13:30N 23°06' E 113°18'6595061.0
2016-Feb-07 13:23N 31°21' E 121°27'655102579.6
2016-Feb-07 13:22N 23°06' E 113°25'1650.9
2016-Feb-07 13:03N 22°52' E 113°33'1326.7
2016-Feb-07 12:34N 23°04' E 113°29'6547117.5
2016-Feb-07 12:28N 31°21' E 121°27'6553175.4
2016-Feb-07 12:16N 23°06' E 113°25'0 0.0
2016-Feb-07 11:33N 23°06' E 113°25'4309.2
2016-Feb-07 11:33N 23°04' E 113°29'6542355940.9
2016-Feb-07 11:32N 31°21' E 121°27'6597705.7
2016-Feb-07 11:27N 23°06' E 113°18'6673295.2
2016-Feb-07 11:15N 32°00' E 120°49'663954.6
2016-Feb-07 10:34N 23°04' E 113°29'6542355900.4
2016-Feb-07 10:34N 31°21' E 121°27'65921383.6
2016-Feb-07 10:32N 23°06' E 113°18'724.6
2016-Feb-07 10:15N 23°06' E 113°25'0 0.0
2016-Feb-07 09:32N 23°06' E 113°25'7717.8
2016-Feb-07 09:32N 23°06' E 113°18'65912625.5
2016-Feb-07 09:29N 31°21' E 121°27'655693.1
2016-Feb-07 08:32N 23°06' E 113°25'72791.4
2016-Feb-07 08:32N 23°06' E 113°18'6599973.1
2016-Feb-07 08:28N 31°21' E 121°27'655697.4
2016-Feb-07 07:31N 23°06' E 113°25'65514127.7
2016-Feb-07 07:29N 31°21' E 121°27'0 0.0
2016-Feb-07 06:33N 31°21' E 121°27'65522470.0
2016-Feb-07 06:31N 23°06' E 113°25'655663.5
2016-Feb-07 05:32N 31°21' E 121°27'6555362.1
2016-Feb-07 05:24N 23°06' E 113°25'4 4.8
2016-Feb-07 04:33N 23°04' E 113°29'6543370.5
2016-Feb-07 04:22N 31°21' E 121°27'6559997.2
2016-Feb-07 04:18N 23°06' E 113°25'4 5.4
2016-Feb-07 03:33N 23°04' E 113°29'460.7
2016-Feb-07 03:29N 23°06' E 113°25'6551737.4
2016-Feb-07 03:07N 31°21' E 121°27'6541164.6
2016-Feb-07 02:33N 23°04' E 113°29'423.7
2016-Feb-07 02:23N 23°06' E 113°25'655294916.2
2016-Feb-07 02:23N 31°21' E 121°27'654796.5
2016-Feb-07 01:33N 23°04' E 113°29'65454789.7
2016-Feb-07 01:33N 31°21' E 121°27'6551376.5
2016-Feb-07 01:04N 23°06' E 113°25'4 7.9
2016-Feb-07 00:33N 23°04' E 113°29'443.9
2016-Feb-07 00:28N 23°06' E 113°25'65558983.7
2016-Feb-07 00:27N 31°21' E 121°27'655730.9
2016-Feb-06 23:33N 23°06' E 113°25'414759.7
2016-Feb-06 23:33N 23°04' E 113°29'6582533.8
2016-Feb-06 23:18N 31°32' E 121°20'658882.7
2016-Feb-06 22:33N 23°04' E 113°29'439.4
2016-Feb-06 22:27N 23°06' E 113°25'4 4.6
2016-Feb-06 21:33N 23°04' E 113°29'4238.1
2016-Feb-06 21:32N 23°06' E 113°25'4 4.2
2016-Feb-06 20:33N 23°04' E 113°29'4546.7
2016-Feb-06 20:33N 23°06' E 113°25'4 4.2
2016-Feb-06 19:33N 23°04' E 113°29'4107.7
2016-Feb-06 19:31N 23°06' E 113°25'6596159.9
2016-Feb-06 19:25N 31°32' E 121°20'658769.0
2016-Feb-06 18:33N 23°04' E 113°29'488.4
2016-Feb-06 18:31N 23°06' E 113°25'4 4.3
2016-Feb-06 17:33N 23°04' E 113°29'475.3
2016-Feb-06 17:30N 23°06' E 113°25'65991216.7
2016-Feb-06 17:30N 31°32' E 121°20'658701.1
2016-Feb-06 16:33N 23°04' E 113°29'411.2
2016-Feb-06 16:11N 23°06' E 113°25'4 6.3
2016-Feb-06 15:33N 23°04' E 113°29'6589951.9
2016-Feb-06 15:29N 31°32' E 121°20'22117.6
2016-Feb-06 15:17N 31°47' E 121°00'659103183.0
2016-Feb-06 15:17N 23°06' E 113°25'4 5.5
2016-Feb-06 14:33N 23°04' E 113°29'451.5
2016-Feb-06 14:29N 23°06' E 113°25'4 4.3
2016-Feb-06 13:33N 23°04' E 113°29'6603170.5
2016-Feb-06 13:20N 31°42' E 121°09'25158.4
2016-Feb-06 13:11N 31°21' E 121°27'65571495.3
2016-Feb-06 13:10N 23°06' E 113°25'4 7.2
2016-Feb-06 12:33N 23°04' E 113°29'41678.0
2016-Feb-06 12:33N 23°06' E 113°25'66169963.4
2016-Feb-06 12:33N 31°40' E 121°12'2396.4
2016-Feb-06 12:19N 31°21' E 121°27'655856.4
2016-Feb-06 11:33N 23°01' E 113°31'7350.8
2016-Feb-06 11:31N 22°55' E 113°30'66113757.2
2016-Feb-06 11:29N 31°21' E 121°27'19100.9
2016-Feb-06 11:17N 31°38' E 121°16'665903.3
2016-Feb-06 10:33N 22°55' E 113°33'66412020.7
2016-Feb-06 10:30N 31°36' E 121°18'3 3.2
2016-Feb-06 09:33N 31°34' E 121°20'6676840.2
2016-Feb-06 09:27N 22°50' E 113°35'666738.1
2016-Feb-06 08:33N 31°31' E 121°22'6677435.7
2016-Feb-06 08:28N 22°47' E 113°37'3 3.4
2016-Feb-06 07:32N 22°45' E 113°39'668610.2
2016-Feb-06 06:27N 31°30' E 121°23'0 0.1
2016-Feb-06 05:30N 31°30' E 121°23'0 0.0
2016-Feb-06 04:24N 31°30' E 121°23'910.1
2016-Feb-06 03:30N 31°21' E 121°27'9188.3
2016-Feb-06 03:27N 31°30' E 121°23'46284.3
2016-Feb-06 03:17N 32°01' E 120°43'5566.6
2016-Feb-06 02:28N 31°21' E 121°27'931.2
2016-Feb-06 02:10N 31°30' E 121°23'4661.7
2016-Feb-06 01:26N 32°01' E 120°44'46414.7
2016-Feb-06 01:19N 31°30' E 121°23'4355.4
2016-Feb-06 00:32N 32°01' E 120°48'523257.7
2016-Feb-06 00:32N 31°21' E 121°27'511363.7
2016-Feb-06 00:29N 32°00' E 120°49'6637510.3
2016-Feb-06 00:24N 23°03' E 113°30'1 1.3
2016-Feb-05 23:33N 23°04' E 113°29'660396151.0
2016-Feb-05 23:33N 32°01' E 120°43'942.4
2016-Feb-05 23:20N 31°57' E 120°52'419.9
2016-Feb-05 23:08N 32°00' E 120°49'811.3
2016-Feb-05 22:27N 31°54' E 120°53'1293.4
2016-Feb-05 22:20N 32°01' E 120°43'660840.2
2016-Feb-05 21:33N 23°04' E 113°29'6635068.3
2016-Feb-05 21:25N 32°00' E 120°49'0 0.1
2016-Feb-05 20:28N 32°00' E 120°49'6637148.0
2016-Feb-05 20:22N 23°04' E 113°29'65828197.9
2016-Feb-05 20:21N 31°47' E 120°59'663824.0
2016-Feb-05 19:33N 23°02' E 113°23'66327137.7
2016-Feb-05 19:31N 31°30' E 121°23'42155.9
2016-Feb-05 19:15N 32°00' E 120°49'2330.2
2016-Feb-05 18:29N 31°44' E 121°08'6 5.3
2016-Feb-05 17:20N 31°40' E 121°13'325013.4
2016-Feb-05 17:20N 32°01' E 120°45'3745.7
2016-Feb-05 16:31N 31°36' E 121°17'6 6.2
2016-Feb-05 15:33N 31°32' E 121°22'7 6.7
2016-Feb-05 14:32N 31°28' E 121°28'6635751.6
2016-Feb-05 14:25N 22°56' E 113°33'667771.1
2016-Feb-05 13:33N 32°00' E 120°49'515779.5
2016-Feb-05 13:33N 31°22' E 121°30'137756.0
2016-Feb-05 13:33N 31°32' E 121°20'1312.5
2016-Feb-05 12:33N 31°21' E 121°27'92296.0
2016-Feb-05 12:32N 31°30' E 121°23'6 6.2
2016-Feb-05 11:33N 31°34' E 121°19'61063.8
2016-Feb-05 11:32N 31°30' E 121°23'6625591.6
2016-Feb-05 11:25N 22°56' E 113°33'6582363.7
2016-Feb-05 11:09N 31°21' E 121°27'51887.6
2016-Feb-05 11:05N 32°00' E 120°49'4279.3
2016-Feb-05 10:33N 31°31' E 121°24'14591.1
2016-Feb-05 10:33N 31°30' E 121°23'9776.1
2016-Feb-05 10:32N 31°21' E 121°27'66434129.0
2016-Feb-05 10:31N 22°55' E 113°26'6702567.8
2016-Feb-05 10:16N 32°01' E 120°43'5577.5
2016-Feb-05 09:33N 31°21' E 121°27'171736.4
2016-Feb-05 09:33N 31°36' E 121°17'46718907.3
2016-Feb-05 09:31N 24°24' E 117°53'4633998.2
2016-Feb-05 09:24N 31°26' E 121°30'48264.7
2016-Feb-05 09:13N 32°00' E 120°49'5176.2
2016-Feb-05 08:33N 31°21' E 121°27'21714.5
2016-Feb-05 08:33N 31°22' E 121°30'456328298.5
2016-Feb-05 08:33N 24°25' E 118°02'2611993.7
2016-Feb-05 08:25N 22°56' E 113°33'6633175.2
2016-Feb-05 08:13N 31°43' E 121°07'471722.0
2016-Feb-05 07:34N 24°20' E 118°07'45710762.8
2016-Feb-05 07:31N 31°21' E 121°27'516305.9
2016-Feb-05 07:30N 32°00' E 120°49'1667.4
2016-Feb-05 07:16N 31°47' E 120°59'3548.0
2016-Feb-05 06:32N 31°21' E 121°27'023.2
2016-Feb-05 06:32N 31°22' E 121°28'6588374.9
2016-Feb-05 06:27N 23°07' E 113°19'661339785.4
2016-Feb-05 06:27N 31°50' E 120°54'6873883.2
2016-Feb-05 06:16N 22°17' E 113°48'681956.0
2016-Feb-05 05:33N 31°21' E 121°27'6584934.3
2016-Feb-05 05:25N 22°56' E 113°33'66210551.2
2016-Feb-05 05:22N 31°26' E 121°29'482688.1
2016-Feb-05 05:20N 32°00' E 120°49'312.7
2016-Feb-05 05:07N 31°58' E 120°51'3 5.7
2016-Feb-05 04:33N 32°00' E 120°48'70069978.9
2016-Feb-05 04:32N 22°12' E 113°42'69338387.6
2016-Feb-05 04:31N 31°30' E 121°22'10807.7
2016-Feb-05 04:30N 31°21' E 121°27'659668.0
2016-Feb-05 03:31N 22°55' E 113°34'6596209.5
2016-Feb-05 03:25N 31°21' E 121°27'1786.0
2016-Feb-05 03:13N 31°36' E 121°17'3960.2
2016-Feb-05 02:33N 30°57' E 121°12'363559.5
2016-Feb-05 02:33N 31°32' E 121°20'13360.2
2016-Feb-05 02:31N 31°21' E 121°27'2626.8
2016-Feb-05 01:33N 30°57' E 121°17'4694.2
2016-Feb-05 01:04N 31°43' E 121°07'1528.8
2016-Feb-05 00:32N 31°32' E 121°20'381607.8
2016-Feb-05 00:30N 32°00' E 120°49'672525.9
2016-Feb-05 00:29N 30°59' E 121°21'67415353.0
2016-Feb-05 00:26N 22°10' E 113°34'677760.7
2016-Feb-04 23:33N 30°60' E 121°25'54575.7
2016-Feb-04 23:27N 31°48' E 120°56'15529.0
2016-Feb-04 23:25N 32°00' E 120°47'7 6.8
2016-Feb-04 22:24N 31°55' E 120°52'62225.1
2016-Feb-04 22:07N 31°01' E 121°29'682677.8
2016-Feb-04 22:06N 32°00' E 120°49'1 1.4
2016-Feb-04 21:33N 32°00' E 120°48'69296.0
2016-Feb-04 21:19N 31°01' E 121°29'68539.0
2016-Feb-04 21:11N 32°00' E 120°49'2 2.4
2016-Feb-04 20:33N 32°01' E 120°47'212.1
2016-Feb-04 20:25N 32°00' E 120°49'68651.8
2016-Feb-04 20:19N 31°01' E 121°29'6881.1
2016-Feb-04 19:28N 32°00' E 120°49'520.6
2016-Feb-04 19:12N 32°01' E 120°43'72108.8
2016-Feb-04 18:33N 31°01' E 121°29'0 0.0
2016-Feb-04 17:23N 31°01' E 121°29'683198.2
2016-Feb-04 17:22N 32°00' E 120°49'4452213.4
2016-Feb-04 17:10N 24°46' E 118°59'425127402.9
2016-Feb-04 17:10N 31°32' E 121°20'3248.0
2016-Feb-04 16:30N 31°01' E 121°29'6857.8
2016-Feb-04 15:19N 32°00' E 120°49'534.8
2016-Feb-04 15:10N 32°01' E 120°43'5 8.1
2016-Feb-04 14:30N 32°00' E 120°49'6722377.5
2016-Feb-04 14:13N 22°51' E 113°34'662984.2
2016-Feb-04 13:32N 31°21' E 121°27'66295397.3
2016-Feb-04 13:32N 22°54' E 113°29'666217973.9
2016-Feb-04 13:32N 31°32' E 121°20'38191.9
2016-Feb-04 13:20N 32°00' E 120°49'5165.9
2016-Feb-04 12:34N 31°21' E 121°27'51116.0
2016-Feb-04 12:07N 32°00' E 120°49'5190.2
2016-Feb-04 11:34N 31°21' E 121°27'6952019.9
2016-Feb-04 11:13N 22°10' E 113°34'695860.8
2016-Feb-04 10:24N 31°21' E 121°27'0 0.0
2016-Feb-04 09:30N 31°21' E 121°27'45997193.3
2016-Feb-04 09:29N 24°17' E 118°10'9 9.3
2016-Feb-04 08:33N 24°10' E 118°15'4647771.5
2016-Feb-04 08:30N 31°21' E 121°27'0 0.0
2016-Feb-04 07:30N 31°21' E 121°27'0 0.0
2016-Feb-04 06:17N 31°21' E 121°27'0 0.0
2016-Feb-04 05:31N 31°21' E 121°27'0 0.0
2016-Feb-04 04:29N 31°21' E 121°27'0 0.0
2016-Feb-04 03:32N 31°21' E 121°27'661612.0
2016-Feb-04 02:27N 23°03' E 113°20'6611782.0
2016-Feb-04 02:05N 31°21' E 121°27'0 0.1
2016-Feb-04 01:32N 31°21' E 121°27'6554746.0
2016-Feb-04 01:23N 23°05' E 113°27'655647.1
2016-Feb-04 00:23N 31°21' E 121°27'0 0.0
2016-Feb-03 23:17N 31°21' E 121°27'0 0.1
2016-Feb-03 22:33N 31°21' E 121°27'3 2.9
2016-Feb-03 21:29N 31°23' E 121°30'3 3.2
2016-Feb-03 20:32N 31°26' E 121°29'34721173.3
2016-Feb-03 20:31N 25°57' E 119°23'1299079.4
2016-Feb-03 20:30N 24°03' E 118°18'8 8.3
2016-Feb-03 19:33N 24°09' E 118°14'13093733.9
2016-Feb-03 19:33N 26°00' E 119°29'3391623.6
2016-Feb-03 19:21N 31°22' E 121°30'  

Dump ship's entire track history